Observation data for Dozier on 11/09/2019      Previous  Date       Current Mesonet Observations  Soil Data  Daily Summary Page  Observations in Plain Language
KDO1 090600Z 30002KT 01/01 A3025 RMK A01 T00120011  RH  100%=      5-min Rain = 0
KDO1 090601Z 32001KT 01/01 A3025 RMK A01 T00120012  RH  100%=      5-min Rain = 0
KDO1 090602Z 32001KT 01/01 A3025 RMK A01 T00110011  RH  100%=      5-min Rain = 0
KDO1 090603Z 33001KT 01/01 A3025 RMK A01 T00110011  RH  100%=      5-min Rain = 0
KDO1 090604Z 35002KT 01/01 A3025 RMK A01 T00110011  RH  100%=      5-min Rain = 0
KDO1 090605Z 36003KT 01/01 A3025 RMK A01 T00110011  RH  100%=      5-min Rain = 0
KDO1 090606Z 35002KT 01/01 A3025 RMK A01 T00100009  RH  100%=      5-min Rain = 0
KDO1 090607Z 33002KT 01/01 A3025 RMK A01 T00090009  RH  100%=      5-min Rain = 0
KDO1 090608Z 33003KT 01/01 A3025 RMK A01 T00080007  RH  100%=      5-min Rain = 0
KDO1 090609Z 34003KT 01/01 A3025 RMK A01 T00060006  RH  100%=      5-min Rain = 0
KDO1 090610Z 34003KT 00/00 A3025 RMK A01 T00040004  RH  100%=      5-min Rain = 0
KDO1 090611Z 33003KT 00/00 A3025 RMK A01 T00040004  RH  100%=      5-min Rain = 0
KDO1 090612Z 33004KT 00/00 A3025 RMK A01 T00030003  RH  100%=      5-min Rain = 0
KDO1 090613Z 34004KT 00/00 A3025 RMK A01 T00030003  RH  100%=      5-min Rain = 0
KDO1 090614Z 34003KT 00/00 A3025 RMK A01 T00030003  RH  100%=      5-min Rain = 0
KDO1 090615Z 33003KT 00/00 A3025 RMK A01 T00020002  RH  100%=      5-min Rain = 0
KDO1 090616Z 33002KT 00/00 A3025 RMK A01 T00020001  RH  100%=      5-min Rain = 0
KDO1 090617Z 34002KT 00/00 A3025 RMK A01 T00020002  RH  100%=      5-min Rain = 0
KDO1 090618Z 35001KT 01/00 A3025 RMK A01 T00050004  RH  100%=      5-min Rain = 0
KDO1 090619Z 02001KT 01/01 A3025 RMK A01 T00070007  RH  100%=      5-min Rain = 0
KDO1 090620Z 04001KT 00/00 A3025 RMK A01 T00030003  RH  100%=      5-min Rain = 0
KDO1 090621Z 03001KT M00/M00 A3025 RMK A01 T10041004  RH  100%=      5-min Rain = 0
KDO1 090622Z 04002KT M01/M01 A3025 RMK A01 T10081008  RH  100%=      5-min Rain = 0
KDO1 090623Z 02003KT M01/M01 A3025 RMK A01 T10101010  RH  100%=      5-min Rain = 0
KDO1 090624Z 02004KT M01/M01 A3025 RMK A01 T10101010  RH  100%=      5-min Rain = 0
KDO1 090625Z 02004KT M01/M01 A3025 RMK A01 T10091009  RH  100%=      5-min Rain = 0
KDO1 090626Z 02004KT M01/M01 A3025 RMK A01 T10051005  RH  100%=      5-min Rain = 0
KDO1 090627Z 01003KT M00/M00 A3025 RMK A01 T10011001  RH  100%=      5-min Rain = 0
KDO1 090628Z 36003KT 00/00 A3025 RMK A01 T00010001  RH  100%=      5-min Rain = 0
KDO1 090629Z 35002KT 00/00 A3025 RMK A01 T00020001  RH  100%=      5-min Rain = 0
KDO1 090630Z 34001KT 00/00 A3025 RMK A01 T00020002  RH  100%=      5-min Rain = 0
KDO1 090631Z 34000KT 00/00 A3025 RMK A01 T00030003  RH  100%=      5-min Rain = 0
KDO1 090632Z 00000KT 01/00 A3025 RMK A01 T00050004  RH  100%=      5-min Rain = 0
KDO1 090633Z 20000KT 01/00 A3025 RMK A01 T00050004  RH  100%=      5-min Rain = 0
KDO1 090634Z 18001KT 00/00 A3025 RMK A01 T00040004  RH  100%=      5-min Rain = 0
KDO1 090635Z 17001KT 00/00 A3025 RMK A01 T00040004  RH  100%=      5-min Rain = 0
KDO1 090636Z 16001KT 00/00 A3025 RMK A01 T00030003  RH  100%=      5-min Rain = 0
KDO1 090637Z 17001KT 00/00 A3025 RMK A01 T00020002  RH  100%=      5-min Rain = 0
KDO1 090638Z 16001KT 00/00 A3025 RMK A01 T00020002  RH  100%=      5-min Rain = 0
KDO1 090639Z 15001KT 00/00 A3025 RMK A01 T00010001  RH  100%=      5-min Rain = 0
KDO1 090640Z 17001KT M00/M00 A3025 RMK A01 T10011001  RH  100%=      5-min Rain = 0
KDO1 090641Z 18002KT M00/M00 A3025 RMK A01 T10021003  RH  100%=      5-min Rain = 0
KDO1 090642Z 19002KT M00/M00 A3025 RMK A01 T10031004  RH  100%=      5-min Rain = 0
KDO1 090643Z 19003KT M01/M01 A3025 RMK A01 T10051005  RH  100%=      5-min Rain = 0
KDO1 090644Z 18003KT M01/M01 A3025 RMK A01 T10051005  RH  100%=      5-min Rain = 0
KDO1 090645Z 18002KT M01/M01 A3025 RMK A01 T10061006  RH  100%=      5-min Rain = 0
KDO1 090646Z 17002KT M01/M01 A3025 RMK A01 T10081008  RH  100%=      5-min Rain = 0
KDO1 090647Z 17002KT M01/M01 A3025 RMK A01 T10091010  RH  100%=      5-min Rain = 0
KDO1 090648Z 16002KT M01/M01 A3025 RMK A01 T10101011  RH  100%=      5-min Rain = 0
KDO1 090649Z 16002KT M01/M01 A3025 RMK A01 T10121012  RH  100%=      5-min Rain = 0
KDO1 090650Z 15002KT M01/M01 A3025 RMK A01 T10121012  RH  100%=      5-min Rain = 0
KDO1 090651Z 16002KT M01/M01 A3025 RMK A01 T10131013  RH  100%=      5-min Rain = 0
KDO1 090652Z 17003KT M01/M01 A3025 RMK A01 T10131013  RH  100%=      5-min Rain = 0
KDO1 090653Z 17004KT M01/M01 A3025 RMK A01 T10141014  RH  100%=      5-min Rain = 0
KDO1 090654Z 18003KT M02/M02 A3025 RMK A01 T10151015  RH  100%=      5-min Rain = 0
KDO1 090655Z 17004KT M02/M02 A3025 RMK A01 T10161016  RH  100%=      5-min Rain = 0
KDO1 090656Z 18004KT M02/M02 A3025 RMK A01 T10161016  RH  100%=      5-min Rain = 0
KDO1 090657Z 18005KT M02/M02 A3025 RMK A01 T10151015  RH  100%=      5-min Rain = 0
KDO1 090658Z 18005KT M02/M02 A3025 RMK A01 T10151015  RH  100%=      5-min Rain = 0
KDO1 090659Z 19005KT M02/M02 A3025 RMK A01 T10151015  RH  100%=      5-min Rain = 0
KDO1 090700Z 19004KT M02/M02 A3025 RMK A01 T10151015  RH  100%=      5-min Rain = 0
KDO1 090701Z 19004KT M02/M02 A3025 RMK A01 T10151015  RH  100%=      5-min Rain = 0
KDO1 090702Z 19004KT M02/M02 A3025 RMK A01 T10151016  RH  100%=      5-min Rain = 0
KDO1 090703Z 19003KT M02/M02 A3024 RMK A01 T10161016  RH  100%=      5-min Rain = 0
KDO1 090704Z 18003KT M02/M02 A3024 RMK A01 T10161016  RH  100%=      5-min Rain = 0
KDO1 090705Z 19002KT M02/M02 A3024 RMK A01 T10161016  RH  100%=      5-min Rain = 0
KDO1 090706Z 20003KT M02/M02 A3024 RMK A01 T10161016  RH  100%=      5-min Rain = 0
KDO1 090707Z 21003KT M02/M02 A3024 RMK A01 T10161016  RH  100%=      5-min Rain = 0
KDO1 090708Z 21003KT M02/M02 A3024 RMK A01 T10151015  RH  100%=      5-min Rain = 0
KDO1 090709Z 22003KT M01/M01 A3024 RMK A01 T10141014  RH  100%=      5-min Rain = 0
KDO1 090710Z 23003KT M01/M01 A3024 RMK A01 T10131013  RH  100%=      5-min Rain = 0
KDO1 090711Z 23003KT M01/M01 A3024 RMK A01 T10121012  RH  100%=      5-min Rain = 0
KDO1 090712Z 23003KT M01/M01 A3024 RMK A01 T10111012  RH  100%=      5-min Rain = 0
KDO1 090713Z 22003KT M01/M01 A3024 RMK A01 T10101010  RH  100%=      5-min Rain = 0
KDO1 090714Z 22003KT M01/M01 A3024 RMK A01 T10101010  RH  100%=      5-min Rain = 0
KDO1 090715Z 22003KT M01/M01 A3024 RMK A01 T10091009  RH  100%=      5-min Rain = 0
KDO1 090720Z 23003KT M01/M01 A3024 RMK A01 T10061006  RH  100%=      5-min Rain = 0
KDO1 090721Z 24003KT M01/M01 A3024 RMK A01 T10061006  RH  100%=      5-min Rain = 0
KDO1 090722Z 24003KT M01/M01 A3024 RMK A01 T10051006  RH  100%=      5-min Rain = 0
KDO1 090723Z 25003KT M01/M01 A3024 RMK A01 T10051005  RH  100%=      5-min Rain = 0
KDO1 090724Z 26003KT M01/M01 A3024 RMK A01 T10051005  RH  100%=      5-min Rain = 0
KDO1 090725Z 27002KT M01/M01 A3024 RMK A01 T10051006  RH  100%=      5-min Rain = 0
KDO1 090726Z 26003KT M01/M01 A3024 RMK A01 T10051005  RH  100%=      5-min Rain = 0
KDO1 090727Z 28003KT M01/M01 A3024 RMK A01 T10051005  RH  100%=      5-min Rain = 0
KDO1 090728Z 29002KT M01/M01 A3024 RMK A01 T10061006  RH  100%=      5-min Rain = 0
KDO1 090729Z 30002KT M01/M01 A3024 RMK A01 T10061006  RH  100%=      5-min Rain = 0
KDO1 090730Z 28002KT M01/M01 A3024 RMK A01 T10061006  RH  100%=      5-min Rain = 0
KDO1 090731Z 27002KT M01/M01 A3024 RMK A01 T10061006  RH  100%=      5-min Rain = 0
KDO1 090732Z 27002KT M01/M01 A3023 RMK A01 T10061006  RH  100%=      5-min Rain = 0
KDO1 090733Z 28001KT M01/M01 A3023 RMK A01 T10051006  RH  100%=      5-min Rain = 0
KDO1 090734Z 28001KT M01/M01 A3023 RMK A01 T10051005  RH  100%=      5-min Rain = 0
KDO1 090735Z 29002KT M01/M01 A3023 RMK A01 T10051005  RH  100%=      5-min Rain = 0
KDO1 090736Z 29002KT M01/M01 A3023 RMK A01 T10061006  RH  100%=      5-min Rain = 0
KDO1 090737Z 27001KT M01/M01 A3023 RMK A01 T10051005  RH  100%=      5-min Rain = 0
KDO1 090738Z 26002KT M00/M00 A3023 RMK A01 T10041004  RH  100%=      5-min Rain = 0
KDO1 090739Z 25002KT M00/M00 A3023 RMK A01 T10031003  RH  100%=      5-min Rain = 0
KDO1 090740Z 24002KT M00/M00 A3023 RMK A01 T10031003  RH  100%=      5-min Rain = 0
KDO1 090741Z 23002KT M00/M00 A3023 RMK A01 T10011002  RH  100%=      5-min Rain = 0
KDO1 090742Z 23003KT 00/00 A3023 RMK A01 T00-000-0  RH  100%=      5-min Rain = 0
KDO1 090743Z 23003KT 00/00 A3023 RMK A01 T00010001  RH  100%=      5-min Rain = 0
KDO1 090744Z 22003KT 00/00 A3023 RMK A01 T00020002  RH  100%=      5-min Rain = 0
KDO1 090745Z 22003KT 00/00 A3023 RMK A01 T00030003  RH  100%=      5-min Rain = 0
KDO1 090746Z 23003KT 00/00 A3023 RMK A01 T00040003  RH  100%=      5-min Rain = 0
KDO1 090747Z 23004KT 00/00 A3023 RMK A01 T00040004  RH  100%=      5-min Rain = 0
KDO1 090748Z 23004KT 00/00 A3023 RMK A01 T00040004  RH  100%=      5-min Rain = 0
KDO1 090749Z 23004KT 00/00 A3022 RMK A01 T00040004  RH  100%=      5-min Rain = 0
KDO1 090750Z 23004KT 00/00 A3022 RMK A01 T00030003  RH  100%=      5-min Rain = 0
KDO1 090751Z 23004KT 00/00 A3022 RMK A01 T00030002  RH  100%=      5-min Rain = 0
KDO1 090752Z 23004KT 00/00 A3022 RMK A01 T00020002  RH  100%=      5-min Rain = 0
KDO1 090753Z 23004KT 00/00 A3022 RMK A01 T00010001  RH  100%=      5-min Rain = 0
KDO1 090754Z 23003KT 00/00 A3022 RMK A01 T00010001  RH  100%=      5-min Rain = 0
KDO1 090755Z 22003KT 00/00 A3022 RMK A01 T00000000  RH  100%=      5-min Rain = 0
KDO1 090756Z 22002KT 00/00 A3022 RMK A01 T00-000-1  RH  100%=      5-min Rain = 0
KDO1 090757Z 23002KT M00/M00 A3022 RMK A01 T10011001  RH  100%=      5-min Rain = 0
KDO1 090758Z 24001KT M00/M00 A3022 RMK A01 T10041004  RH  100%=      5-min Rain = 0
KDO1 090759Z 24001KT M01/M01 A3022 RMK A01 T10071007  RH  100%=      5-min Rain = 0
KDO1 090800Z 24001KT M01/M01 A3022 RMK A01 T10081008  RH  100%=      5-min Rain = 0
KDO1 090801Z 24001KT M01/M01 A3022 RMK A01 T10081009  RH  100%=      5-min Rain = 0
KDO1 090802Z 25001KT M01/M01 A3022 RMK A01 T10081008  RH  100%=      5-min Rain = 0
KDO1 090803Z 25000KT M01/M01 A3022 RMK A01 T10071007  RH  100%=      5-min Rain = 0
KDO1 090804Z 00000KT M01/M01 A3022 RMK A01 T10061007  RH  100%=      5-min Rain = 0
KDO1 090805Z 00000KT M01/M01 A3022 RMK A01 T10071007  RH  100%=      5-min Rain = 0
KDO1 090806Z 00000KT M01/M01 A3022 RMK A01 T10091009  RH  100%=      5-min Rain = 0
KDO1 090807Z 00000KT M01/M01 A3022 RMK A01 T10091010  RH  100%=      5-min Rain = 0
KDO1 090808Z 00000KT M01/M01 A3022 RMK A01 T10091009  RH  100%=      5-min Rain = 0
KDO1 090809Z 35000KT M01/M01 A3022 RMK A01 T10081008  RH  100%=      5-min Rain = 0
KDO1 090810Z 01001KT M01/M01 A3022 RMK A01 T10061007  RH  100%=      5-min Rain = 0
KDO1 090811Z 02001KT M01/M01 A3022 RMK A01 T10061007  RH  100%=      5-min Rain = 0
KDO1 090812Z 02001KT M01/M01 A3022 RMK A01 T10091009  RH  100%=      5-min Rain = 0
KDO1 090813Z 01001KT M01/M01 A3022 RMK A01 T10121012  RH  100%=      5-min Rain = 0
KDO1 090814Z 01000KT M01/M01 A3022 RMK A01 T10141014  RH  100%=      5-min Rain = 0
KDO1 090815Z 00000KT M02/M02 A3022 RMK A01 T10161016  RH  100%=      5-min Rain = 0
KDO1 090816Z 00000KT M02/M02 A3022 RMK A01 T10161017  RH  100%=      5-min Rain = 0
KDO1 090817Z 00000KT M02/M02 A3022 RMK A01 T10171017  RH  100%=      5-min Rain = 0
KDO1 090818Z 00000KT M02/M02 A3022 RMK A01 T10171017  RH  100%=      5-min Rain = 0
KDO1 090819Z 00000KT M02/M02 A3022 RMK A01 T10161017  RH  100%=      5-min Rain = 0
KDO1 090820Z 00000KT M02/M02 A3021 RMK A01 T10161016  RH  100%=      5-min Rain = 0
KDO1 090821Z 15000KT M02/M02 A3021 RMK A01 T10161016  RH  100%=      5-min Rain = 0
KDO1 090822Z 14000KT M02/M02 A3021 RMK A01 T10161016  RH  100%=      5-min Rain = 0
KDO1 090823Z 15001KT M02/M02 A3021 RMK A01 T10161016  RH  100%=      5-min Rain = 0
KDO1 090824Z 16001KT M02/M02 A3021 RMK A01 T10161016  RH  100%=      5-min Rain = 0
KDO1 090825Z 17002KT M02/M02 A3021 RMK A01 T10151015  RH  100%=      5-min Rain = 0
KDO1 090826Z 18001KT M02/M02 A3021 RMK A01 T10151015  RH  100%=      5-min Rain = 0
KDO1 090827Z 20001KT M02/M02 A3021 RMK A01 T10151015  RH  100%=      5-min Rain = 0
KDO1 090828Z 21002KT M02/M02 A3021 RMK A01 T10151015  RH  100%=      5-min Rain = 0
KDO1 090829Z 21002KT M01/M02 A3021 RMK A01 T10141015  RH  100%=      5-min Rain = 0
KDO1 090830Z 22002KT M01/M01 A3021 RMK A01 T10141014  RH  100%=      5-min Rain = 0
KDO1 090831Z 22002KT M01/M01 A3021 RMK A01 T10141014  RH  100%=      5-min Rain = 0
KDO1 090832Z 22001KT M02/M02 A3021 RMK A01 T10151015  RH  100%=      5-min Rain = 0
KDO1 090833Z 23000KT M02/M02 A3021 RMK A01 T10151015  RH  100%=      5-min Rain = 0
KDO1 090834Z 34000KT M02/M02 A3021 RMK A01 T10151016  RH  100%=      5-min Rain = 0
KDO1 090835Z 35002KT M02/M02 A3021 RMK A01 T10161017  RH  100%=      5-min Rain = 0
KDO1 090836Z 36003KT M02/M02 A3021 RMK A01 T10171017  RH  100%=      5-min Rain = 0
KDO1 090837Z 35004KT M02/M02 A3021 RMK A01 T10171017  RH  100%=      5-min Rain = 0
KDO1 090838Z 34004KT M02/M02 A3021 RMK A01 T10161017  RH  100%=      5-min Rain = 0
KDO1 090839Z 35004KT M02/M02 A3021 RMK A01 T10171017  RH  100%=      5-min Rain = 0
KDO1 090840Z 35003KT M02/M02 A3021 RMK A01 T10151016  RH  100%=      5-min Rain = 0
KDO1 090841Z 34003KT M01/M01 A3021 RMK A01 T10141014  RH  100%=      5-min Rain = 0
KDO1 090842Z 34002KT M01/M01 A3021 RMK A01 T10131013  RH  100%=      5-min Rain = 0
KDO1 090843Z 35002KT M01/M01 A3021 RMK A01 T10121013  RH  100%=      5-min Rain = 0
KDO1 090844Z 00002KT M01/M01 A3021 RMK A01 T10121012  RH  100%=      5-min Rain = 0
KDO1 090845Z 01002KT M01/M01 A3021 RMK A01 T10121012  RH  100%=      5-min Rain = 0
KDO1 090846Z 02001KT M01/M01 A3021 RMK A01 T10121012  RH  100%=      5-min Rain = 0
KDO1 090847Z 02001KT M01/M01 A3021 RMK A01 T10111011  RH  100%=      5-min Rain = 0
KDO1 090848Z 03002KT M01/M01 A3021 RMK A01 T10101010  RH  100%=      5-min Rain = 0
KDO1 090849Z 03003KT M01/M01 A3021 RMK A01 T10101010  RH  100%=      5-min Rain = 0
KDO1 090850Z 03002KT M01/M01 A3021 RMK A01 T10101010  RH  100%=      5-min Rain = 0
KDO1 090851Z 04001KT M01/M01 A3021 RMK A01 T10101010  RH  100%=      5-min Rain = 0
KDO1 090852Z 04001KT M01/M01 A3021 RMK A01 T10101010  RH  100%=      5-min Rain = 0
KDO1 090853Z 03002KT M01/M01 A3021 RMK A01 T10101011  RH  100%=      5-min Rain = 0
KDO1 090854Z 02003KT M01/M01 A3021 RMK A01 T10111011  RH  100%=      5-min Rain = 0
KDO1 090855Z 02002KT M01/M01 A3021 RMK A01 T10111012  RH  100%=      5-min Rain = 0
KDO1 090856Z 02002KT M01/M01 A3021 RMK A01 T10121012  RH  100%=      5-min Rain = 0
KDO1 090857Z 02002KT M01/M01 A3021 RMK A01 T10121012  RH  100%=      5-min Rain = 0
KDO1 090858Z 02002KT M01/M01 A3021 RMK A01 T10121012  RH  100%=      5-min Rain = 0
KDO1 090859Z 02003KT M01/M01 A3021 RMK A01 T10131014  RH  100%=      5-min Rain = 0
KDO1 090900Z 02003KT M02/M02 A3021 RMK A01 T10151015  RH  100%=      5-min Rain = 0
KDO1 090901Z 00002KT M02/M02 A3021 RMK A01 T10161017  RH  100%=      5-min Rain = 0
KDO1 090902Z 35001KT M02/M02 A3021 RMK A01 T10171017  RH  100%=      5-min Rain = 0
KDO1 090903Z 36001KT M02/M02 A3021 RMK A01 T10171017  RH  100%=      5-min Rain = 0
KDO1 090904Z 35001KT M02/M02 A3021 RMK A01 T10161016  RH  100%=      5-min Rain = 0
KDO1 090905Z 31000KT M01/M01 A302 RMK A01 T10141014  RH  100%=      5-min Rain = 0
KDO1 090906Z 25001KT M01/M01 A302 RMK A01 T10141014  RH  100%=      5-min Rain = 0
KDO1 090907Z 24001KT M02/M02 A302 RMK A01 T10151015  RH  100%=      5-min Rain = 0
KDO1 090908Z 22001KT M02/M02 A302 RMK A01 T10151015  RH  100%=      5-min Rain = 0
KDO1 090909Z 21001KT M02/M02 A302 RMK A01 T10151015  RH  100%=      5-min Rain = 0
KDO1 090910Z 21001KT M02/M02 A302 RMK A01 T10161016  RH  100%=      5-min Rain = 0
KDO1 090911Z 21001KT M02/M02 A302 RMK A01 T10161016  RH  100%=      5-min Rain = 0
KDO1 090912Z 21002KT M02/M02 A302 RMK A01 T10171017  RH  100%=      5-min Rain = 0
KDO1 090913Z 22002KT M02/M02 A302 RMK A01 T10171017  RH  100%=      5-min Rain = 0
KDO1 090914Z 23002KT M02/M02 A302 RMK A01 T10181018  RH  100%=      5-min Rain = 0
KDO1 090915Z 23002KT M02/M02 A302 RMK A01 T10191019  RH  100%=      5-min Rain = 0
KDO1 090916Z 24002KT M02/M02 A302 RMK A01 T10201020  RH  100%=      5-min Rain = 0
KDO1 090917Z 25002KT M02/M02 A302 RMK A01 T10211021  RH  100%=      5-min Rain = 0
KDO1 090918Z 26002KT M02/M02 A302 RMK A01 T10211021  RH  100%=      5-min Rain = 0
KDO1 090919Z 26002KT M02/M02 A302 RMK A01 T10221022  RH  100%=      5-min Rain = 0
KDO1 090920Z 26001KT M02/M02 A302 RMK A01 T10221022  RH  100%=      5-min Rain = 0
KDO1 090921Z 26002KT M02/M02 A302 RMK A01 T10221022  RH  100%=      5-min Rain = 0
KDO1 090922Z 26002KT M02/M02 A302 RMK A01 T10221022  RH  100%=      5-min Rain = 0
KDO1 090923Z 27002KT M02/M02 A302 RMK A01 T10221022  RH  100%=      5-min Rain = 0
KDO1 090924Z 28002KT M02/M02 A302 RMK A01 T10221022  RH  100%=      5-min Rain = 0
KDO1 090925Z 30002KT M02/M02 A302 RMK A01 T10211021  RH  100%=      5-min Rain = 0
KDO1 090926Z 31002KT M02/M02 A302 RMK A01 T10191019  RH  100%=      5-min Rain = 0
KDO1 090927Z 30002KT M02/M02 A302 RMK A01 T10161016  RH  100%=      5-min Rain = 0
KDO1 090928Z 29002KT M01/M01 A302 RMK A01 T10141014  RH  100%=      5-min Rain = 0
KDO1 090929Z 29003KT M01/M01 A302 RMK A01 T10131014  RH  100%=      5-min Rain = 0
KDO1 090930Z 29003KT M01/M01 A302 RMK A01 T10131014  RH  100%=      5-min Rain = 0
KDO1 090931Z 29003KT M01/M01 A302 RMK A01 T10141014  RH  100%=      5-min Rain = 0
KDO1 090932Z 30003KT M02/M02 A302 RMK A01 T10151015  RH  100%=      5-min Rain = 0
KDO1 090933Z 30003KT M02/M02 A302 RMK A01 T10151015  RH  100%=      5-min Rain = 0
KDO1 090934Z 31004KT M02/M02 A302 RMK A01 T10161016  RH  100%=      5-min Rain = 0
KDO1 090935Z 31004KT M02/M02 A302 RMK A01 T10151015  RH  100%=      5-min Rain = 0
KDO1 090936Z 31004KT M01/M01 A302 RMK A01 T10101010  RH  100%=      5-min Rain = 0
KDO1 090937Z 30004KT M01/M01 A302 RMK A01 T10051005  RH  100%=      5-min Rain = 0
KDO1 090938Z 31003KT M00/M00 A302 RMK A01 T10021003  RH  100%=      5-min Rain = 0
KDO1 090939Z 31003KT M00/M00 A302 RMK A01 T10021003  RH  100%=      5-min Rain = 0
KDO1 090940Z 30003KT M00/M00 A302 RMK A01 T10021002  RH  100%=      5-min Rain = 0
KDO1 090941Z 29003KT M00/M00 A302 RMK A01 T10021003  RH  100%=      5-min Rain = 0
KDO1 090942Z 29002KT M00/M00 A302 RMK A01 T10021003  RH  100%=      5-min Rain = 0
KDO1 090943Z 30002KT M00/M00 A302 RMK A01 T10021003  RH  100%=      5-min Rain = 0
KDO1 090944Z 31002KT M00/M00 A302 RMK A01 T10021003  RH  100%=      5-min Rain = 0
KDO1 090945Z 31001KT M00/M00 A302 RMK A01 T10031003  RH  100%=      5-min Rain = 0
KDO1 090946Z 31001KT M00/M00 A302 RMK A01 T10031003  RH  100%=      5-min Rain = 0
KDO1 090947Z 32001KT M00/M00 A302 RMK A01 T10041004  RH  100%=      5-min Rain = 0
KDO1 090948Z 33002KT M00/M00 A302 RMK A01 T10041004  RH  100%=      5-min Rain = 0
KDO1 090949Z 34002KT M00/M00 A302 RMK A01 T10041004  RH  100%=      5-min Rain = 0
KDO1 090950Z 35002KT M00/M00 A3019 RMK A01 T10041004  RH  100%=      5-min Rain = 0
KDO1 090951Z 33003KT M00/M00 A3019 RMK A01 T10031003  RH  100%=      5-min Rain = 0
KDO1 090952Z 33003KT M00/M00 A3019 RMK A01 T10021002  RH  100%=      5-min Rain = 0
KDO1 090953Z 34003KT M00/M00 A3019 RMK A01 T10021002  RH  100%=      5-min Rain = 0
KDO1 090954Z 34003KT M00/M00 A3019 RMK A01 T10021003  RH  100%=      5-min Rain = 0
KDO1 090955Z 34003KT M00/M00 A3019 RMK A01 T10041004  RH  100%=      5-min Rain = 0
KDO1 090956Z 34003KT M01/M01 A3019 RMK A01 T10051005  RH  100%=      5-min Rain = 0
KDO1 090957Z 34002KT M01/M01 A3019 RMK A01 T10061006  RH  100%=      5-min Rain = 0
KDO1 090958Z 34002KT M01/M01 A3019 RMK A01 T10061006  RH  100%=      5-min Rain = 0
KDO1 090959Z 00002KT M00/M00 A3019 RMK A01 T10021002  RH  100%=      5-min Rain = 0
KDO1 091000Z 02002KT 00/00 A3019 RMK A01 T00000000  RH  100%=      5-min Rain = 0
KDO1 091001Z 04000KT 00/00 A3019 RMK A01 T00020002  RH  100%=      5-min Rain = 0
KDO1 091002Z 02001KT 00/00 A3019 RMK A01 T00000000  RH  100%=      5-min Rain = 0
KDO1 091003Z 01001KT M00/M00 A3019 RMK A01 T10041004  RH  100%=      5-min Rain = 0
KDO1 091004Z 02001KT M00/M01 A3019 RMK A01 T10041005  RH  100%=      5-min Rain = 0
KDO1 091005Z 04002KT M00/M00 A3019 RMK A01 T10041004  RH  100%=      5-min Rain = 0
KDO1 091006Z 04001KT M00/M01 A3019 RMK A01 T10041005  RH  100%=      5-min Rain = 0
KDO1 091007Z 05001KT M01/M01 A3019 RMK A01 T10061006  RH  100%=      5-min Rain = 0
KDO1 091008Z 03002KT M01/M01 A3019 RMK A01 T10121013  RH  100%=      5-min Rain = 0
KDO1 091009Z 03001KT M02/M02 A3019 RMK A01 T10161016  RH  100%=      5-min Rain = 0
KDO1 091010Z 03001KT M02/M02 A3019 RMK A01 T10191019  RH  100%=      5-min Rain = 0
KDO1 091011Z 03001KT M02/M02 A3019 RMK A01 T10221022  RH  100%=      5-min Rain = 0
KDO1 091012Z 02000KT M02/M02 A3019 RMK A01 T10241024  RH  100%=      5-min Rain = 0
KDO1 091013Z 00000KT M03/M03 A3019 RMK A01 T10251025  RH  100%=      5-min Rain = 0
KDO1 091014Z 09000KT M03/M03 A3019 RMK A01 T10251025  RH  100%=      5-min Rain = 0
KDO1 091015Z 00000KT M02/M02 A3019 RMK A01 T10241024  RH  100%=      5-min Rain = 0
KDO1 091016Z 00000KT M02/M02 A3019 RMK A01 T10241024  RH  100%=      5-min Rain = 0
KDO1 091017Z 00000KT M02/M02 A3019 RMK A01 T10241024  RH  100%=      5-min Rain = 0
KDO1 091018Z 00000KT M02/M02 A3019 RMK A01 T10241024  RH  100%=      5-min Rain = 0
KDO1 091019Z 00000KT M03/M03 A3019 RMK A01 T10251025  RH  100%=      5-min Rain = 0
KDO1 091020Z 13000KT M03/M03 A3019 RMK A01 T10251025  RH  100%=      5-min Rain = 0
KDO1 091021Z 16000KT M03/M03 A3019 RMK A01 T10251025  RH  100%=      5-min Rain = 0
KDO1 091022Z 16001KT M03/M03 A3019 RMK A01 T10251025  RH  100%=      5-min Rain = 0
KDO1 091023Z 16001KT M03/M03 A3019 RMK A01 T10251025  RH  100%=      5-min Rain = 0
KDO1 091024Z 17000KT M02/M02 A3019 RMK A01 T10241024  RH  100%=      5-min Rain = 0
KDO1 091025Z 21001KT M02/M02 A3019 RMK A01 T10241024  RH  100%=      5-min Rain = 0
KDO1 091026Z 22001KT M02/M02 A3019 RMK A01 T10231023  RH  100%=      5-min Rain = 0
KDO1 091027Z 22001KT M02/M02 A3019 RMK A01 T10221022  RH  100%=      5-min Rain = 0
KDO1 091028Z 22001KT M02/M02 A3019 RMK A01 T10211021  RH  100%=      5-min Rain = 0
KDO1 091029Z 23001KT M02/M02 A3019 RMK A01 T10211021  RH  100%=      5-min Rain = 0
KDO1 091030Z 23001KT M02/M02 A3019 RMK A01 T10221022  RH  100%=      5-min Rain = 0
KDO1 091031Z 22001KT M02/M02 A3019 RMK A01 T10221022  RH  100%=      5-min Rain = 0
KDO1 091032Z 22001KT M02/M02 A3019 RMK A01 T10231023  RH  100%=      5-min Rain = 0
KDO1 091033Z 22000KT M02/M02 A3019 RMK A01 T10221022  RH  100%=      5-min Rain = 0
KDO1 091034Z 00000KT M02/M02 A3019 RMK A01 T10191019  RH  100%=      5-min Rain = 0
KDO1 091035Z 00000KT M02/M02 A3019 RMK A01 T10151016  RH  100%=      5-min Rain = 0
KDO1 091036Z 00000KT M01/M01 A3018 RMK A01 T10131014  RH  100%=      5-min Rain = 0
KDO1 091037Z 28000KT M01/M01 A3018 RMK A01 T10121012  RH  100%=      5-min Rain = 0
KDO1 091038Z 29000KT M01/M01 A3018 RMK A01 T10121012  RH  100%=      5-min Rain = 0
KDO1 091039Z 00000KT M01/M01 A3018 RMK A01 T10111012  RH  100%=      5-min Rain = 0
KDO1 091040Z 01001KT M01/M01 A3018 RMK A01 T10101010  RH  100%=      5-min Rain = 0
KDO1 091041Z 01001KT M01/M01 A3018 RMK A01 T10071007  RH  100%=      5-min Rain = 0
KDO1 091042Z 36001KT M01/M01 A3018 RMK A01 T10051005  RH  100%=      5-min Rain = 0
KDO1 091043Z 35001KT M01/M01 A3018 RMK A01 T10051005  RH  100%=      5-min Rain = 0
KDO1 091044Z 35001KT M01/M01 A3018 RMK A01 T10051005  RH  100%=      5-min Rain = 0
KDO1 091045Z 35000KT M01/M01 A3018 RMK A01 T10051005  RH  100%=      5-min Rain = 0
KDO1 091046Z 00000KT M01/M01 A3018 RMK A01 T10051005  RH  100%=      5-min Rain = 0
KDO1 091047Z 00000KT M01/M01 A3018 RMK A01 T10051006  RH  100%=      5-min Rain = 0
KDO1 091048Z 00000KT M01/M01 A3018 RMK A01 T10051006  RH  100%=      5-min Rain = 0
KDO1 091049Z 00000KT M01/M01 A3018 RMK A01 T10061006  RH  100%=      5-min Rain = 0
KDO1 091050Z 00000KT M01/M01 A3018 RMK A01 T10071007  RH  100%=      5-min Rain = 0
KDO1 091051Z 00000KT M01/M01 A3018 RMK A01 T10081008  RH  100%=      5-min Rain = 0
KDO1 091052Z 00000KT M01/M01 A3018 RMK A01 T10081009  RH  100%=      5-min Rain = 0
KDO1 091053Z 00000KT M01/M01 A3018 RMK A01 T10101010  RH  100%=      5-min Rain = 0
KDO1 091054Z 00000KT M01/M01 A3018 RMK A01 T10101010  RH  100%=      5-min Rain = 0
KDO1 091055Z 00000KT M01/M01 A3018 RMK A01 T10111011  RH  100%=      5-min Rain = 0
KDO1 091056Z 00000KT M01/M01 A3018 RMK A01 T10111011  RH  100%=      5-min Rain = 0
KDO1 091057Z 02001KT M01/M01 A3018 RMK A01 T10101010  RH  100%=      5-min Rain = 0
KDO1 091058Z 03001KT M01/M01 A3018 RMK A01 T10091009  RH  100%=      5-min Rain = 0
KDO1 091059Z 03001KT M01/M01 A3018 RMK A01 T10091009  RH  100%=      5-min Rain = 0
KDO1 091100Z 04001KT M01/M01 A3018 RMK A01 T10071008  RH  100%=      5-min Rain = 0
KDO1 091101Z 03002KT M01/M01 A3019 RMK A01 T10061006  RH  100%=      5-min Rain = 0
KDO1 091102Z 03003KT M01/M01 A3019 RMK A01 T10061007  RH  100%=      5-min Rain = 0
KDO1 091103Z 03003KT M01/M01 A3019 RMK A01 T10071008  RH  100%=      5-min Rain = 0
KDO1 091104Z 03002KT M01/M01 A3019 RMK A01 T10071008  RH  100%=      5-min Rain = 0
KDO1 091105Z 02002KT M01/M01 A3019 RMK A01 T10081008  RH  100%=      5-min Rain = 0
KDO1 091106Z 02001KT M01/M01 A3019 RMK A01 T10081009  RH  100%=      5-min Rain = 0
KDO1 091107Z 03001KT M01/M01 A3019 RMK A01 T10091009  RH  100%=      5-min Rain = 0
KDO1 091108Z 01001KT M01/M01 A3019 RMK A01 T10091010  RH  100%=      5-min Rain = 0
KDO1 091109Z 35001KT M01/M01 A3018 RMK A01 T10111011  RH  100%=      5-min Rain = 0
KDO1 091110Z 33000KT M01/M01 A3018 RMK A01 T10131014  RH  100%=      5-min Rain = 0
KDO1 091111Z 00000KT M02/M02 A3018 RMK A01 T10151015  RH  100%=      5-min Rain = 0
KDO1 091112Z 00000KT M02/M02 A3018 RMK A01 T10171017  RH  100%=      5-min Rain = 0
KDO1 091113Z 00000KT M02/M02 A3018 RMK A01 T10181018  RH  100%=      5-min Rain = 0
KDO1 091114Z 00000KT M02/M02 A3018 RMK A01 T10191020  RH  100%=      5-min Rain = 0
KDO1 091115Z 00000KT M02/M02 A3018 RMK A01 T10191020  RH  100%=      5-min Rain = 0
KDO1 091116Z 00000KT M02/M02 A3018 RMK A01 T10181018  RH  100%=      5-min Rain = 0
KDO1 091117Z 07000KT M02/M02 A3018 RMK A01 T10161016  RH  100%=      5-min Rain = 0
KDO1 091118Z 06001KT M01/M01 A3018 RMK A01 T10131013  RH  100%=      5-min Rain = 0
KDO1 091119Z 05001KT M01/M01 A3018 RMK A01 T10071007  RH  100%=      5-min Rain = 0
KDO1 091120Z 05001KT M00/M00 A3018 RMK A01 T10011001  RH  100%=      5-min Rain = 0
KDO1 091121Z 04001KT 00/00 A3018 RMK A01 T00030003  RH  100%=      5-min Rain = 0
KDO1 091122Z 04001KT 01/01 A3018 RMK A01 T00050005  RH  100%=      5-min Rain = 0
KDO1 091123Z 04000KT 01/01 A3018 RMK A01 T00060005  RH  100%=      5-min Rain = 0
KDO1 091124Z 00000KT 01/01 A3018 RMK A01 T00060006  RH  100%=      5-min Rain = 0
KDO1 091125Z 03001KT 01/01 A3018 RMK A01 T00070007  RH  100%=      5-min Rain = 0
KDO1 091126Z 03001KT 01/01 A3018 RMK A01 T00070007  RH  100%=      5-min Rain = 0
KDO1 091127Z 02002KT 01/01 A3018 RMK A01 T00050005  RH  100%=      5-min Rain = 0
KDO1 091128Z 01002KT 00/00 A3018 RMK A01 T00040004  RH  100%=      5-min Rain = 0
KDO1 091129Z 01002KT 00/00 A3018 RMK A01 T00030002  RH  100%=      5-min Rain = 0
KDO1 091130Z 02002KT 00/00 A3018 RMK A01 T00000000  RH  100%=      5-min Rain = 0
KDO1 091131Z 02003KT M00/M00 A3018 RMK A01 T10031003  RH  100%=      5-min Rain = 0
KDO1 091132Z 01003KT M01/M01 A3018 RMK A01 T10061007  RH  100%=      5-min Rain = 0
KDO1 091133Z 01003KT M01/M01 A3018 RMK A01 T10081008  RH  100%=      5-min Rain = 0
KDO1 091134Z 01003KT M01/M01 A3018 RMK A01 T10081008  RH  100%=      5-min Rain = 0
KDO1 091135Z 01003KT M01/M01 A3018 RMK A01 T10061006  RH  100%=      5-min Rain = 0
KDO1 091136Z 01003KT M00/M00 A3018 RMK A01 T10031003  RH  100%=      5-min Rain = 0
KDO1 091137Z 01003KT M00/M00 A3018 RMK A01 T10011001  RH  100%=      5-min Rain = 0
KDO1 091138Z 02003KT 00/00 A3019 RMK A01 T00010001  RH  100%=      5-min Rain = 0
KDO1 091139Z 02003KT 01/01 A3019 RMK A01 T00060006  RH  100%=      5-min Rain = 0
KDO1 091140Z 03003KT 01/01 A3019 RMK A01 T00100009  RH  100%=      5-min Rain = 0
KDO1 091141Z 03003KT 01/01 A3019 RMK A01 T00110011  RH  100%=      5-min Rain = 0
KDO1 091142Z 02003KT 01/01 A3019 RMK A01 T00130013  RH  100%=      5-min Rain = 0
KDO1 091143Z 02002KT 01/01 A3019 RMK A01 T00130013  RH  100%=      5-min Rain = 0
KDO1 091144Z 02002KT 01/01 A3019 RMK A01 T00120011  RH  100%=      5-min Rain = 0
KDO1 091145Z 02002KT 01/01 A3019 RMK A01 T00100010  RH  100%=      5-min Rain = 0
KDO1 091146Z 02002KT 01/01 A3019 RMK A01 T00080008  RH  100%=      5-min Rain = 0
KDO1 091147Z 02002KT 01/01 A3019 RMK A01 T00060006  RH  100%=      5-min Rain = 0
KDO1 091148Z 01002KT 01/01 A3019 RMK A01 T00050005  RH  100%=      5-min Rain = 0
KDO1 091149Z 01002KT 01/00 A3019 RMK A01 T00050004  RH  100%=      5-min Rain = 0
KDO1 091150Z 02002KT 00/00 A3019 RMK A01 T00040004  RH  100%=      5-min Rain = 0
KDO1 091151Z 03002KT 00/00 A3019 RMK A01 T00030003  RH  100%=      5-min Rain = 0
KDO1 091152Z 03002KT 00/00 A3019 RMK A01 T00030003  RH  100%=      5-min Rain = 0
KDO1 091153Z 03002KT 00/00 A3019 RMK A01 T00040004  RH  100%=      5-min Rain = 0
KDO1 091154Z 03002KT 01/01 A3019 RMK A01 T00050005  RH  100%=      5-min Rain = 0
KDO1 091155Z 04001KT 01/01 A3019 RMK A01 T00050005  RH  100%=      5-min Rain = 0
KDO1 091156Z 04001KT 00/00 A3019 RMK A01 T00040004  RH  100%=      5-min Rain = 0
KDO1 091157Z 06001KT 00/00 A3019 RMK A01 T00030003  RH  100%=      5-min Rain = 0
KDO1 091158Z 08001KT 01/01 A3019 RMK A01 T00050005  RH  100%=      5-min Rain = 0
KDO1 091159Z 09001KT 01/01 A3019 RMK A01 T00070007  RH  100%=      5-min Rain = 0
KDO1 091200Z 09001KT 01/01 A3019 RMK A01 T00100009  RH  100%=      5-min Rain = 0
KDO1 091201Z 09001KT 01/01 A3019 RMK A01 T00100010  RH  100%=      5-min Rain = 0
KDO1 091202Z 09001KT 01/01 A3019 RMK A01 T00100010  RH  100%=      5-min Rain = 0
KDO1 091203Z 08001KT 01/01 A3019 RMK A01 T00100010  RH  100%=      5-min Rain = 0
KDO1 091204Z 09001KT 01/01 A3019 RMK A01 T00090009  RH  100%=      5-min Rain = 0
KDO1 091205Z 10001KT 01/01 A3019 RMK A01 T00100009  RH  100%=      5-min Rain = 0
KDO1 091206Z 10001KT 01/01 A3019 RMK A01 T00100010  RH  100%=      5-min Rain = 0
KDO1 091207Z 10001KT 01/01 A3019 RMK A01 T00100010  RH  100%=      5-min Rain = 0
KDO1 091208Z 08001KT 01/01 A3019 RMK A01 T00100010  RH  100%=      5-min Rain = 0
KDO1 091209Z 08000KT 01/01 A3019 RMK A01 T00100010  RH  100%=      5-min Rain = 0
KDO1 091210Z 00000KT 01/01 A3019 RMK A01 T00090009  RH  100%=      5-min Rain = 0
KDO1 091211Z 00000KT 01/01 A3019 RMK A01 T00080007  RH  100%=      5-min Rain = 0
KDO1 091212Z 00000KT 01/01 A3019 RMK A01 T00050005  RH  100%=      5-min Rain = 0
KDO1 091213Z 00000KT 00/00 A3019 RMK A01 T00040003  RH  100%=      5-min Rain = 0
KDO1 091214Z 00000KT 00/00 A3019 RMK A01 T00030003  RH  100%=      5-min Rain = 0
KDO1 091215Z 00000KT 00/00 A3019 RMK A01 T00030003  RH  100%=      5-min Rain = 0
KDO1 091216Z 00000KT 00/00 A3019 RMK A01 T00010001  RH  100%=      5-min Rain = 0
KDO1 091217Z 00000KT 00/00 A3019 RMK A01 T000000-0  RH  100%=      5-min Rain = 0
KDO1 091218Z 00000KT 00/00 A3019 RMK A01 T000000-0  RH  100%=      5-min Rain = 0
KDO1 091219Z 00000KT 00/00 A3019 RMK A01 T00000000  RH  100%=      5-min Rain = 0
KDO1 091220Z 00000KT 00/00 A3019 RMK A01 T00000000  RH  100%=      5-min Rain = 0
KDO1 091221Z 00000KT 00/00 A3019 RMK A01 T00010001  RH  100%=      5-min Rain = 0
KDO1 091222Z 00000KT 00/00 A3019 RMK A01 T00000000  RH  100%=      5-min Rain = 0
KDO1 091223Z 00000KT 00/00 A3019 RMK A01 T00-000-0  RH  100%=      5-min Rain = 0
KDO1 091224Z 00000KT 00/00 A3019 RMK A01 T00-000-0  RH  100%=      5-min Rain = 0
KDO1 091225Z 20001KT 00/00 A3019 RMK A01 T000000-0  RH  100%=      5-min Rain = 0
KDO1 091226Z 21001KT 00/00 A3019 RMK A01 T00000000  RH  100%=      5-min Rain = 0
KDO1 091227Z 23001KT 00/00 A3019 RMK A01 T00-000-0  RH  100%=      5-min Rain = 0
KDO1 091228Z 23000KT 00/00 A3019 RMK A01 T00-000-1  RH  100%=      5-min Rain = 0
KDO1 091229Z 23000KT M00/M00 A3019 RMK A01 T10011001  RH  100%=      5-min Rain = 0
KDO1 091230Z 23001KT M00/M00 A3019 RMK A01 T10011001  RH  100%=      5-min Rain = 0
KDO1 091231Z 24001KT 00/00 A3019 RMK A01 T00-000-1  RH  100%=      5-min Rain = 0
KDO1 091232Z 24001KT M00/M00 A3019 RMK A01 T10021002  RH  100%=      5-min Rain = 0
KDO1 091233Z 24001KT M00/M00 A3019 RMK A01 T10031003  RH  100%=      5-min Rain = 0
KDO1 091234Z 24001KT M00/M00 A3019 RMK A01 T10041004  RH  100%=      5-min Rain = 0
KDO1 091235Z 24002KT M01/M01 A3019 RMK A01 T10051006  RH  100%=      5-min Rain = 0
KDO1 091236Z 24002KT M01/M01 A3019 RMK A01 T10061006  RH  100%=      5-min Rain = 0
KDO1 091237Z 24002KT M01/M01 A3019 RMK A01 T10071008  RH  100%=      5-min Rain = 0
KDO1 091238Z 24003KT M01/M01 A3019 RMK A01 T10081008  RH  100%=      5-min Rain = 0
KDO1 091239Z 24003KT M01/M01 A3019 RMK A01 T10071007  RH  100%=      5-min Rain = 0
KDO1 091240Z 23003KT M01/M01 A3019 RMK A01 T10051006  RH  100%=      5-min Rain = 0
KDO1 091241Z 23003KT M00/M00 A3019 RMK A01 T10041004  RH  100%=      5-min Rain = 0
KDO1 091242Z 22003KT M00/M00 A3019 RMK A01 T10031003  RH  100%=      5-min Rain = 0
KDO1 091243Z 23003KT M00/M00 A3019 RMK A01 T10021002  RH  100%=      5-min Rain = 0
KDO1 091244Z 22003KT M00/M00 A3019 RMK A01 T10021002  RH  100%=      5-min Rain = 0
KDO1 091245Z 22003KT M00/M00 A3019 RMK A01 T10011002  RH  100%=      5-min Rain = 0
KDO1 091246Z 21003KT M00/M00 A3019 RMK A01 T10011001  RH  100%=      5-min Rain = 0
KDO1 091247Z 21002KT M00/M00 A3019 RMK A01 T10011001  RH  100%=      5-min Rain = 0
KDO1 091248Z 21002KT M00/M00 A3019 RMK A01 T10011001  RH  100%=      5-min Rain = 0
KDO1 091249Z 22002KT 00/00 A3019 RMK A01 T00-000-1  RH  100%=      5-min Rain = 0
KDO1 091250Z 22002KT 00/00 A3019 RMK A01 T00010001  RH  100%=      5-min Rain = 0
KDO1 091251Z 23002KT 00/00 A3019 RMK A01 T00020001  RH  100%=      5-min Rain = 0
KDO1 091252Z 24002KT 00/00 A3019 RMK A01 T00020002  RH  100%=      5-min Rain = 0
KDO1 091253Z 24002KT 00/00 A3019 RMK A01 T00020002  RH  100%=      5-min Rain = 0
KDO1 091254Z 24002KT 00/00 A3019 RMK A01 T00020002  RH  100%=      5-min Rain = 0
KDO1 091255Z 25002KT 00/00 A3019 RMK A01 T00020002  RH  100%=      5-min Rain = 0
KDO1 091256Z 25001KT 00/00 A3019 RMK A01 T00020001  RH  100%=      5-min Rain = 0
KDO1 091257Z 25001KT 00/00 A3019 RMK A01 T00010001  RH  100%=      5-min Rain = 0
KDO1 091258Z 25001KT 00/00 A3019 RMK A01 T00010001  RH  100%=      5-min Rain = 0
KDO1 091259Z 25001KT 00/00 A3019 RMK A01 T00010001  RH  100%=      5-min Rain = 0
KDO1 091300Z 25001KT 00/00 A3019 RMK A01 T00010001  RH  100%=      5-min Rain = 0
KDO1 091301Z 24001KT 00/00 A302 RMK A01 T00020002  RH  100%=      5-min Rain = 0
KDO1 091302Z 24000KT 00/00 A302 RMK A01 T00030003  RH  100%=      5-min Rain = 0
KDO1 091303Z 00000KT 00/00 A302 RMK A01 T00040004  RH  100%=      5-min Rain = 0
KDO1 091304Z 00000KT 01/01 A302 RMK A01 T00060005  RH  100%=      5-min Rain = 0
KDO1 091305Z 00000KT 01/01 A302 RMK A01 T00060006  RH  100%=      5-min Rain = 0
KDO1 091306Z 00000KT 01/01 A302 RMK A01 T00060006  RH  100%=      5-min Rain = 0
KDO1 091307Z 24000KT 01/01 A302 RMK A01 T00050005  RH  100%=      5-min Rain = 0
KDO1 091308Z 25001KT 00/00 A302 RMK A01 T00040004  RH  100%=      5-min Rain = 0
KDO1 091309Z 25001KT 00/00 A302 RMK A01 T00030003  RH  100%=      5-min Rain = 0
KDO1 091310Z 25001KT 00/00 A302 RMK A01 T00030003  RH  100%=      5-min Rain = 0
KDO1 091311Z 26001KT 00/00 A302 RMK A01 T00030002  RH  100%=      5-min Rain = 0
KDO1 091312Z 26001KT 00/00 A302 RMK A01 T00030002  RH  100%=      5-min Rain = 0
KDO1 091313Z 26001KT 00/00 A302 RMK A01 T00020002  RH  100%=      5-min Rain = 0
KDO1 091314Z 26001KT 00/00 A302 RMK A01 T00020002  RH  100%=      5-min Rain = 0
KDO1 091315Z 25001KT 00/00 A302 RMK A01 T00030002  RH  100%=      5-min Rain = 0
KDO1 091316Z 25001KT 00/00 A302 RMK A01 T00020002  RH  100%=      5-min Rain = 0
KDO1 091317Z 25001KT 00/00 A302 RMK A01 T00020002  RH  100%=      5-min Rain = 0
KDO1 091318Z 25001KT 00/00 A302 RMK A01 T00020002  RH  100%=      5-min Rain = 0
KDO1 091319Z 25001KT 00/00 A302 RMK A01 T00010001  RH  100%=      5-min Rain = 0
KDO1 091320Z 25001KT 00/00 A302 RMK A01 T00010001  RH  100%=      5-min Rain = 0
KDO1 091321Z 25001KT 00/00 A302 RMK A01 T00010001  RH  100%=      5-min Rain = 0
KDO1 091322Z 25001KT 00/00 A302 RMK A01 T00010001  RH  100%=      5-min Rain = 0
KDO1 091323Z 25002KT 00/00 A302 RMK A01 T00010001  RH  100%=      5-min Rain = 0
KDO1 091324Z 25003KT 00/00 A302 RMK A01 T00020001  RH  100%=      5-min Rain = 0
KDO1 091325Z 25003KT 00/00 A302 RMK A01 T00020002  RH  100%=      5-min Rain = 0
KDO1 091326Z 25003KT 00/00 A302 RMK A01 T00010001  RH  100%=      5-min Rain = 0
KDO1 091327Z 25003KT 00/00 A302 RMK A01 T00010001  RH  100%=      5-min Rain = 0
KDO1 091328Z 25003KT 00/00 A302 RMK A01 T00010001  RH  100%=      5-min Rain = 0
KDO1 091329Z 25002KT 00/00 A302 RMK A01 T00010001  RH  100%=      5-min Rain = 0
KDO1 091330Z 25003KT 00/00 A302 RMK A01 T00020001  RH  100%=      5-min Rain = 0
KDO1 091331Z 26004KT 00/00 A302 RMK A01 T00020002  RH  100%=      5-min Rain = 0
KDO1 091332Z 25004KT 00/00 A302 RMK A01 T00040004  RH  100%=      5-min Rain = 0
KDO1 091333Z 25004KT 01/01 A302 RMK A01 T00060006  RH  100%=      5-min Rain = 0
KDO1 091334Z 24004KT 01/01 A302 RMK A01 T00070007  RH  100%=      5-min Rain = 0
KDO1 091335Z 24003KT 01/01 A302 RMK A01 T00070007  RH  100%=      5-min Rain = 0
KDO1 091336Z 24003KT 01/01 A302 RMK A01 T00080007  RH  100%=      5-min Rain = 0
KDO1 091337Z 23003KT 01/01 A302 RMK A01 T00080008  RH  100%=      5-min Rain = 0
KDO1 091338Z 23003KT 01/01 A302 RMK A01 T00080008  RH  100%=      5-min Rain = 0
KDO1 091339Z 23003KT 01/01 A302 RMK A01 T00080007  RH  100%=      5-min Rain = 0
KDO1 091340Z 23002KT 01/01 A302 RMK A01 T00090009  RH  100%=      5-min Rain = 0
KDO1 091341Z 22002KT 01/01 A302 RMK A01 T00110011  RH  100%=      5-min Rain = 0
KDO1 091342Z 23002KT 01/01 A302 RMK A01 T00110010  RH  100%=      5-min Rain = 0
KDO1 091343Z 23002KT 01/01 A302 RMK A01 T00100010  RH  100%=      5-min Rain = 0
KDO1 091344Z 22002KT 01/01 A302 RMK A01 T00100010  RH  100%=      5-min Rain = 0
KDO1 091345Z 22001KT 01/01 A302 RMK A01 T00100009  RH  100%=      5-min Rain = 0
KDO1 091346Z 23001KT 01/01 A302 RMK A01 T00090008  RH  100%=      5-min Rain = 0
KDO1 091347Z 24002KT 01/01 A302 RMK A01 T00080008  RH  100%=      5-min Rain = 0
KDO1 091348Z 24002KT 01/01 A302 RMK A01 T00080008  RH  100%=      5-min Rain = 0
KDO1 091349Z 24002KT 01/01 A302 RMK A01 T00090009  RH  100%=      5-min Rain = 0
KDO1 091350Z 24002KT 01/01 A302 RMK A01 T00110011  RH  100%=      5-min Rain = 0
KDO1 091351Z 24002KT 01/01 A302 RMK A01 T00130013  RH  100%=      5-min Rain = 0
KDO1 091352Z 25002KT 01/01 A302 RMK A01 T00130013  RH  100%=      5-min Rain = 0
KDO1 091353Z 26001KT 01/01 A302 RMK A01 T00130013  RH  100%=      5-min Rain = 0
KDO1 091354Z 26001KT 01/01 A302 RMK A01 T00130013  RH  100%=      5-min Rain = 0
KDO1 091355Z 26000KT 01/01 A302 RMK A01 T00140014  RH  100%=      5-min Rain = 0
KDO1 091356Z 26000KT 01/01 A302 RMK A01 T00140013  RH  100%=      5-min Rain = 0
KDO1 091357Z 00000KT 01/01 A302 RMK A01 T00130013  RH  100%=      5-min Rain = 0
KDO1 091358Z 00000KT 01/01 A302 RMK A01 T00130013  RH  100%=      5-min Rain = 0
KDO1 091359Z 00000KT 02/02 A302 RMK A01 T00150015  RH  100%=      5-min Rain = 0
KDO1 091400Z 00000KT 02/02 A302 RMK A01 T00170017  RH  100%=      5-min Rain = 0
KDO1 091401Z 00000KT 02/02 A302 RMK A01 T00190019  RH  100%=      5-min Rain = 0
KDO1 091402Z 00000KT 02/02 A302 RMK A01 T00210020  RH  100%=      5-min Rain = 0
KDO1 091403Z 00000KT 02/02 A302 RMK A01 T00220022  RH  100%=      5-min Rain = 0
KDO1 091404Z 17000KT 02/02 A302 RMK A01 T00220022  RH  100%=      5-min Rain = 0
KDO1 091405Z 18001KT 02/02 A302 RMK A01 T00230023  RH  100%=      5-min Rain = 0
KDO1 091406Z 19002KT 02/02 A302 RMK A01 T00230022  RH  100%=      5-min Rain = 0
KDO1 091407Z 19002KT 02/02 A302 RMK A01 T00230023  RH  100%=      5-min Rain = 0
KDO1 091408Z 20001KT 02/02 A302 RMK A01 T00230023  RH  100%=      5-min Rain = 0
KDO1 091409Z 21001KT 02/02 A302 RMK A01 T00230023  RH  100%=      5-min Rain = 0
KDO1 091410Z 23001KT 02/02 A302 RMK A01 T00220022  RH  100%=      5-min Rain = 0
KDO1 091411Z 25001KT 02/02 A302 RMK A01 T00210021  RH  100%=      5-min Rain = 0
KDO1 091412Z 25002KT 02/02 A302 RMK A01 T00210021  RH  100%=      5-min Rain = 0
KDO1 091413Z 26002KT 02/02 A302 RMK A01 T00210021  RH  100%=      5-min Rain = 0
KDO1 091414Z 26001KT 02/02 A302 RMK A01 T00210020  RH  100%=      5-min Rain = 0
KDO1 091415Z 26002KT 02/02 A302 RMK A01 T00210021  RH  100%=      5-min Rain = 0
KDO1 091416Z 27001KT 02/02 A302 RMK A01 T00210020  RH  100%=      5-min Rain = 0
KDO1 091417Z 29001KT 02/02 A302 RMK A01 T00220022  RH  100%=      5-min Rain = 0
KDO1 091418Z 00000KT 02/02 A302 RMK A01 T00230023  RH  100%=      5-min Rain = 0
KDO1 091419Z 00000KT 03/03 A302 RMK A01 T00260026  RH  100%=      5-min Rain = 0
KDO1 091420Z 00000KT 03/03 A302 RMK A01 T00300030  RH  100%=      5-min Rain = 0
KDO1 091421Z 00000KT 03/03 A302 RMK A01 T00320032  RH  100%=      5-min Rain = 0
KDO1 091422Z 00000KT 04/04 A302 RMK A01 T00350035  RH  100%=      5-min Rain = 0
KDO1 091423Z 00000KT 04/04 A302 RMK A01 T00390039  RH  100%=      5-min Rain = 0
KDO1 091424Z 03000KT 05/04 A302 RMK A01 T00450044  RH  100%=      5-min Rain = 0
KDO1 091425Z 03000KT 05/05 A302 RMK A01 T00480048  RH  100%=      5-min Rain = 0
KDO1 091426Z 05000KT 05/05 A302 RMK A01 T00480048  RH  100%=      5-min Rain = 0
KDO1 091427Z 05000KT 05/05 A302 RMK A01 T00480048  RH  100%=      5-min Rain = 0
KDO1 091428Z 07000KT 05/05 A302 RMK A01 T00480047  RH  099%=      5-min Rain = 0
KDO1 091429Z 07001KT 05/05 A302 RMK A01 T00490046  RH  098%=      5-min Rain = 0
KDO1 091430Z 08001KT 05/05 A302 RMK A01 T00490045  RH  098%=      5-min Rain = 0
KDO1 091431Z 09001KT 05/04 A302 RMK A01 T00490044  RH  097%=      5-min Rain = 0
KDO1 091432Z 09001KT 05/04 A3021 RMK A01 T00490044  RH  097%=      5-min Rain = 0
KDO1 091433Z 10001KT 05/04 A3021 RMK A01 T00490043  RH  096%=      5-min Rain = 0
KDO1 091434Z 11001KT 05/04 A3021 RMK A01 T00490043  RH  096%=      5-min Rain = 0
KDO1 091435Z 11001KT 05/04 A3021 RMK A01 T00500043  RH  096%=      5-min Rain = 0
KDO1 091436Z 12001KT 05/04 A3021 RMK A01 T00510044  RH  096%=      5-min Rain = 0
KDO1 091437Z 12000KT 05/04 A3021 RMK A01 T00520044  RH  095%=      5-min Rain = 0
KDO1 091438Z 13000KT 05/05 A3021 RMK A01 T00530045  RH  095%=      5-min Rain = 0
KDO1 091439Z 00000KT 05/04 A3021 RMK A01 T00540044  RH  094%=      5-min Rain = 0
KDO1 091440Z 00000KT 05/04 A3021 RMK A01 T00530043  RH  093%=      5-min Rain = 0
KDO1 091441Z 00000KT 06/05 A3021 RMK A01 T00550046  RH  094%=      5-min Rain = 0
KDO1 091442Z 00000KT 06/05 A3021 RMK A01 T00560047  RH  094%=      5-min Rain = 0
KDO1 091443Z 00000KT 06/05 A302 RMK A01 T00560046  RH  093%=      5-min Rain = 0
KDO1 091444Z 00000KT 06/05 A302 RMK A01 T00570047  RH  094%=      5-min Rain = 0
KDO1 091445Z 19000KT 06/05 A3021 RMK A01 T00570048  RH  094%=      5-min Rain = 0
KDO1 091446Z 19000KT 06/05 A3021 RMK A01 T00580049  RH  094%=      5-min Rain = 0
KDO1 091447Z 18001KT 06/05 A3021 RMK A01 T00600050  RH  093%=      5-min Rain = 0
KDO1 091448Z 19000KT 06/05 A3021 RMK A01 T00610049  RH  093%=      5-min Rain = 0
KDO1 091449Z 19000KT 06/05 A3021 RMK A01 T00610048  RH  092%=      5-min Rain = 0
KDO1 091450Z 18001KT 06/05 A3021 RMK A01 T00610048  RH  092%=      5-min Rain = 0
KDO1 091451Z 17001KT 06/05 A3021 RMK A01 T00610050  RH  092%=      5-min Rain = 0
KDO1 091452Z 17001KT 06/05 A3021 RMK A01 T00620050  RH  092%=      5-min Rain = 0
KDO1 091453Z 17001KT 06/05 A3021 RMK A01 T00620050  RH  092%=      5-min Rain = 0
KDO1 091454Z 16001KT 06/05 A3021 RMK A01 T00630051  RH  092%=      5-min Rain = 0
KDO1 091455Z 15001KT 07/05 A3021 RMK A01 T00650052  RH  092%=      5-min Rain = 0
KDO1 091456Z 15001KT 07/05 A3021 RMK A01 T00660052  RH  091%=      5-min Rain = 0
KDO1 091457Z 15000KT 07/05 A3021 RMK A01 T00670052  RH  090%=      5-min Rain = 0
KDO1 091458Z 18000KT 07/05 A3021 RMK A01 T00680051  RH  089%=      5-min Rain = 0
KDO1 091459Z 18001KT 07/05 A3021 RMK A01 T00680051  RH  089%=      5-min Rain = 0
KDO1 091500Z 20001KT 07/05 A3021 RMK A01 T00680050  RH  088%=      5-min Rain = 0
KDO1 091501Z 19001KT 07/05 A3021 RMK A01 T00680051  RH  089%=      5-min Rain = 0
KDO1 091502Z 20001KT 07/05 A3021 RMK A01 T00680052  RH  089%=      5-min Rain = 0
KDO1 091503Z 20001KT 07/05 A3021 RMK A01 T00680050  RH  088%=      5-min Rain = 0
KDO1 091504Z 21001KT 07/05 A3021 RMK A01 T00670051  RH  089%=      5-min Rain = 0
KDO1 091505Z 21002KT 07/05 A3021 RMK A01 T00670051  RH  090%=      5-min Rain = 0
KDO1 091506Z 22001KT 07/05 A3021 RMK A01 T00670053  RH  091%=      5-min Rain = 0
KDO1 091507Z 21001KT 07/05 A3021 RMK A01 T00670053  RH  090%=      5-min Rain = 0
KDO1 091508Z 21001KT 07/05 A3021 RMK A01 T00680053  RH  090%=      5-min Rain = 0
KDO1 091509Z 20000KT 07/05 A3021 RMK A01 T00680054  RH  091%=      5-min Rain = 0
KDO1 091510Z 19001KT 07/06 A3021 RMK A01 T00690055  RH  091%=      5-min Rain = 0
KDO1 091511Z 18000KT 07/06 A3021 RMK A01 T00700056  RH  091%=      5-min Rain = 0
KDO1 091512Z 00000KT 07/06 A3021 RMK A01 T00710055  RH  090%=      5-min Rain = 0
KDO1 091513Z 17000KT 07/06 A3021 RMK A01 T00720056  RH  090%=      5-min Rain = 0
KDO1 091514Z 18000KT 07/06 A3021 RMK A01 T00720055  RH  089%=      5-min Rain = 0
KDO1 091515Z 21000KT 07/06 A3021 RMK A01 T00730056  RH  089%=      5-min Rain = 0
KDO1 091516Z 21001KT 08/06 A3021 RMK A01 T00750056  RH  088%=      5-min Rain = 0
KDO1 091517Z 20002KT 08/06 A3021 RMK A01 T00750056  RH  088%=      5-min Rain = 0
KDO1 091518Z 20002KT 08/06 A3021 RMK A01 T00760058  RH  088%=      5-min Rain = 0
KDO1 091519Z 19002KT 08/06 A3021 RMK A01 T00780059  RH  088%=      5-min Rain = 0
KDO1 091520Z 20002KT 08/06 A3021 RMK A01 T00790059  RH  087%=      5-min Rain = 0
KDO1 091521Z 21002KT 08/06 A3021 RMK A01 T00790057  RH  086%=      5-min Rain = 0
KDO1 091522Z 21003KT 08/06 A3021 RMK A01 T00790057  RH  086%=      5-min Rain = 0
KDO1 091523Z 20003KT 08/06 A3021 RMK A01 T00800057  RH  086%=      5-min Rain = 0
KDO1 091524Z 21003KT 08/06 A3021 RMK A01 T00800058  RH  086%=      5-min Rain = 0
KDO1 091525Z 21002KT 08/06 A3021 RMK A01 T00830060  RH  086%=      5-min Rain = 0
KDO1 091526Z 20002KT 09/06 A3021 RMK A01 T00850061  RH  085%=      5-min Rain = 0
KDO1 091527Z 21003KT 09/06 A3021 RMK A01 T00860061  RH  084%=      5-min Rain = 0
KDO1 091528Z 22003KT 09/06 A3021 RMK A01 T00870060  RH  083%=      5-min Rain = 0
KDO1 091529Z 21004KT 09/06 A3021 RMK A01 T00880062  RH  084%=      5-min Rain = 0
KDO1 091530Z 21003KT 09/06 A3021 RMK A01 T00890061  RH  082%=      5-min Rain = 0
KDO1 091531Z 21004KT 09/06 A3021 RMK A01 T00900062  RH  083%=      5-min Rain = 0
KDO1 091532Z 21004KT 09/07 A3021 RMK A01 T00920065  RH  083%=      5-min Rain = 0
KDO1 091533Z 20004KT 09/07 A3021 RMK A01 T00940065  RH  082%=      5-min Rain = 0
KDO1 091534Z 20004KT 10/07 A3021 RMK A01 T00950065  RH  082%=      5-min Rain = 0
KDO1 091535Z 20004KT 10/07 A3021 RMK A01 T00960065  RH  081%=      5-min Rain = 0
KDO1 091536Z 20004KT 10/07 A3021 RMK A01 T00980066  RH  081%=      5-min Rain = 0
KDO1 091537Z 21004KT 10/07 A3021 RMK A01 T01000066  RH  080%=      5-min Rain = 0
KDO1 091538Z 21004KT 10/07 A3021 RMK A01 T01020066  RH  078%=      5-min Rain = 0
KDO1 091539Z 20004KT 10/07 A3021 RMK A01 T01040067  RH  078%=      5-min Rain = 0
KDO1 091540Z 21003KT 11/07 A3021 RMK A01 T01050066  RH  077%=      5-min Rain = 0
KDO1 091541Z 20003KT 11/07 A3021 RMK A01 T01060066  RH  076%=      5-min Rain = 0
KDO1 091542Z 21003KT 11/07 A3021 RMK A01 T01070066  RH  076%=      5-min Rain = 0
KDO1 091543Z 20002KT 11/07 A3021 RMK A01 T01080066  RH  075%=      5-min Rain = 0
KDO1 091544Z 22003KT 11/07 A3021 RMK A01 T01090066  RH  075%=      5-min Rain = 0
KDO1 091545Z 20003KT 11/07 A3021 RMK A01 T01110066  RH  074%=      5-min Rain = 0
KDO1 091546Z 20003KT 11/07 A3021 RMK A01 T01120067  RH  074%=      5-min Rain = 0
KDO1 091547Z 20003KT 11/07 A3021 RMK A01 T01140069  RH  074%=      5-min Rain = 0
KDO1 091548Z 20003KT 12/07 A3021 RMK A01 T01160067  RH  072%=      5-min Rain = 0
KDO1 091549Z 19003KT 12/07 A3021 RMK A01 T01160065  RH  071%=      5-min Rain = 0
KDO1 091550Z 18003KT 12/07 A3021 RMK A01 T01170067  RH  071%=      5-min Rain = 0
KDO1 091551Z 18002KT 12/07 A3021 RMK A01 T01180067  RH  071%=      5-min Rain = 0
KDO1 091552Z 17002KT 12/07 A3021 RMK A01 T01200067  RH  070%=      5-min Rain = 0
KDO1 091553Z 16002KT 12/07 A3021 RMK A01 T01210067  RH  070%=      5-min Rain = 0
KDO1 091554Z 18002KT 12/07 A3021 RMK A01 T01230067  RH  069%=      5-min Rain = 0
KDO1 091555Z 19002KT 12/07 A3021 RMK A01 T01230065  RH  068%=      5-min Rain = 0
KDO1 091556Z 18002KT 12/07 A3021 RMK A01 T01230065  RH  068%=      5-min Rain = 0
KDO1 091557Z 17002KT 12/07 A3021 RMK A01 T01230067  RH  069%=      5-min Rain = 0
KDO1 091558Z 17003KT 12/07 A3021 RMK A01 T01240065  RH  067%=      5-min Rain = 0
KDO1 091559Z 17003KT 13/06 A3021 RMK A01 T01250064  RH  066%=      5-min Rain = 0
KDO1 091600Z 18003KT 13/06 A3021 RMK A01 T01250063  RH  066%=      5-min Rain = 0
KDO1 091601Z 18003KT 13/06 A3021 RMK A01 T01250064  RH  066%=      5-min Rain = 0
KDO1 091602Z 17003KT 12/06 A3021 RMK A01 T01240064  RH  067%=      5-min Rain = 0
KDO1 091603Z 15003KT 13/07 A3021 RMK A01 T01250067  RH  068%=      5-min Rain = 0
KDO1 091604Z 14003KT 13/07 A3022 RMK A01 T01280067  RH  067%=      5-min Rain = 0
KDO1 091605Z 16002KT 13/07 A3022 RMK A01 T01300067  RH  065%=      5-min Rain = 0
KDO1 091606Z 13003KT 13/07 A3022 RMK A01 T01320067  RH  065%=      5-min Rain = 0
KDO1 091607Z 12003KT 13/06 A3022 RMK A01 T01340063  RH  062%=      5-min Rain = 0
KDO1 091608Z 13003KT 14/06 A3022 RMK A01 T01350063  RH  062%=      5-min Rain = 0
KDO1 091609Z 14004KT 14/06 A3022 RMK A01 T01350062  RH  061%=      5-min Rain = 0
KDO1 091610Z 15004KT 14/06 A3022 RMK A01 T01350058  RH  059%=      5-min Rain = 0
KDO1 091611Z 15003KT 14/06 A3021 RMK A01 T01350057  RH  059%=      5-min Rain = 0
KDO1 091612Z 17003KT 14/06 A3021 RMK A01 T01360061  RH  061%=      5-min Rain = 0
KDO1 091613Z 15003KT 14/06 A3021 RMK A01 T01360062  RH  061%=      5-min Rain = 0
KDO1 091614Z 14003KT 14/06 A3021 RMK A01 T01370062  RH  060%=      5-min Rain = 0
KDO1 091615Z 15004KT 14/06 A3021 RMK A01 T01380060  RH  059%=      5-min Rain = 0
KDO1 091616Z 15003KT 14/06 A3021 RMK A01 T01380059  RH  059%=      5-min Rain = 0
KDO1 091617Z 15004KT 14/06 A3021 RMK A01 T01380059  RH  059%=      5-min Rain = 0
KDO1 091618Z 13004KT 14/06 A3021 RMK A01 T01390060  RH  059%=      5-min Rain = 0
KDO1 091619Z 15004KT 14/06 A3021 RMK A01 T01410062  RH  059%=      5-min Rain = 0
KDO1 091620Z 14005KT 14/06 A3021 RMK A01 T01420061  RH  058%=      5-min Rain = 0
KDO1 091621Z 15005KT 14/06 A3021 RMK A01 T01420060  RH  058%=      5-min Rain = 0
KDO1 091622Z 15004KT 14/06 A3021 RMK A01 T01410061  RH  059%=      5-min Rain = 0
KDO1 091623Z 15004KT 14/06 A3021 RMK A01 T01410060  RH  058%=      5-min Rain = 0
KDO1 091624Z 17003KT 14/06 A3021 RMK A01 T01420062  RH  058%=      5-min Rain = 0
KDO1 091625Z 16003KT 14/06 A3021 RMK A01 T01430060  RH  057%=      5-min Rain = 0
KDO1 091626Z 17004KT 14/06 A3021 RMK A01 T01440059  RH  057%=      5-min Rain = 0
KDO1 091627Z 16003KT 15/06 A3021 RMK A01 T01450059  RH  056%=      5-min Rain = 0
KDO1 091628Z 18002KT 15/06 A3021 RMK A01 T01450060  RH  057%=      5-min Rain = 0
KDO1 091629Z 19004KT 15/06 A3021 RMK A01 T01450060  RH  056%=      5-min Rain = 0
KDO1 091630Z 18003KT 15/06 A3021 RMK A01 T01460057  RH  055%=      5-min Rain = 0
KDO1 091631Z 14004KT 15/06 A3021 RMK A01 T01470059  RH  056%=      5-min Rain = 0
KDO1 091632Z 15004KT 15/06 A3021 RMK A01 T01490057  RH  054%=      5-min Rain = 0
KDO1 091633Z 16005KT 15/06 A3021 RMK A01 T01500057  RH  054%=      5-min Rain = 0
KDO1 091634Z 17005KT 15/06 A3021 RMK A01 T01500055  RH  053%=      5-min Rain = 0
KDO1 091635Z 17004KT 15/06 A3021 RMK A01 T01500058  RH  054%=      5-min Rain = 0
KDO1 091636Z 17005KT 15/06 A3021 RMK A01 T01510060  RH  054%=      5-min Rain = 0
KDO1 091637Z 17004KT 15/06 A3021 RMK A01 T01530061  RH  054%=      5-min Rain = 0
KDO1 091638Z 16004KT 16/06 A3021 RMK A01 T01550060  RH  053%=      5-min Rain = 0
KDO1 091639Z 17004KT 16/06 A3021 RMK A01 T01560061  RH  053%=      5-min Rain = 0
KDO1 091640Z 17004KT 16/06 A3021 RMK A01 T01570064  RH  054%=      5-min Rain = 0
KDO1 091641Z 16005KT 16/06 A3021 RMK A01 T01600064  RH  053%=      5-min Rain = 0
KDO1 091642Z 15004KT 16/06 A302 RMK A01 T01610061  RH  051%=      5-min Rain = 0
KDO1 091643Z 17005KT 16/06 A3021 RMK A01 T01610064  RH  053%=      5-min Rain = 0
KDO1 091644Z 18005KT 16/07 A302 RMK A01 T01620065  RH  053%=      5-min Rain = 0
KDO1 091645Z 16006KT 16/06 A302 RMK A01 T01620064  RH  052%=      5-min Rain = 0
KDO1 091646Z 17005KT 16/07 A302 RMK A01 T01640065  RH  052%=      5-min Rain = 0
KDO1 091647Z 18005KT 17/07 A302 RMK A01 T01650066  RH  052%=      5-min Rain = 0
KDO1 091648Z 18005KT 17/07 A302 RMK A01 T01660067  RH  052%=      5-min Rain = 0
KDO1 091649Z 17004KT 17/07 A302 RMK A01 T01670067  RH  052%=      5-min Rain = 0
KDO1 091650Z 16004KT 17/07 A302 RMK A01 T01670067  RH  052%=      5-min Rain = 0
KDO1 091651Z 14005KT 17/07 A302 RMK A01 T01680065  RH  051%=      5-min Rain = 0
KDO1 091652Z 14005KT 17/06 A302 RMK A01 T01700062  RH  049%=      5-min Rain = 0
KDO1 091653Z 17004KT 17/06 A302 RMK A01 T01710062  RH  049%=      5-min Rain = 0
KDO1 091654Z 15002KT 17/06 A302 RMK A01 T01710062  RH  049%=      5-min Rain = 0
KDO1 091655Z 14004KT 17/06 A302 RMK A01 T01730063  RH  048%=      5-min Rain = 0
KDO1 091656Z 18004KT 18/06 A302 RMK A01 T01750063  RH  048%=      5-min Rain = 0
KDO1 091657Z 18002KT 18/06 A302 RMK A01 T01770064  RH  048%=      5-min Rain = 0
KDO1 091658Z 18004KT 18/06 A302 RMK A01 T01780064  RH  047%=      5-min Rain = 0
KDO1 091659Z 17004KT 18/06 A302 RMK A01 T01780063  RH  047%=      5-min Rain = 0
KDO1 091700Z 20003KT 18/06 A302 RMK A01 T01780063  RH  047%=      5-min Rain = 0
KDO1 091701Z 17004KT 18/06 A302 RMK A01 T01780064  RH  047%=      5-min Rain = 0
KDO1 091702Z 16004KT 18/07 A302 RMK A01 T01800068  RH  048%=      5-min Rain = 0
KDO1 091703Z 16004KT 18/07 A302 RMK A01 T01830067  RH  047%=      5-min Rain = 0
KDO1 091704Z 17004KT 18/06 A302 RMK A01 T01840064  RH  045%=      5-min Rain = 0
KDO1 091705Z 16004KT 18/07 A302 RMK A01 T01830065  RH  046%=      5-min Rain = 0
KDO1 091706Z 16004KT 18/06 A302 RMK A01 T01830064  RH  046%=      5-min Rain = 0
KDO1 091707Z 19004KT 18/07 A302 RMK A01 T01820066  RH  046%=      5-min Rain = 0
KDO1 091708Z 19004KT 18/06 A302 RMK A01 T01820064  RH  046%=      5-min Rain = 0
KDO1 091709Z 19004KT 18/07 A302 RMK A01 T01830066  RH  047%=      5-min Rain = 0
KDO1 091710Z 19005KT 19/06 A302 RMK A01 T01850064  RH  045%=      5-min Rain = 0
KDO1 091711Z 20006KT 18/06 A302 RMK A01 T01840064  RH  045%=      5-min Rain = 0
KDO1 091712Z 20007KT 19/06 A302 RMK A01 T01850062  RH  045%=      5-min Rain = 0
KDO1 091713Z 20005KT 19/06 A302 RMK A01 T01850062  RH  045%=      5-min Rain = 0
KDO1 091714Z 19006KT 18/06 A3019 RMK A01 T01840064  RH  045%=      5-min Rain = 0
KDO1 091715Z 18006KT 18/07 A3019 RMK A01 T01830065  RH  046%=      5-min Rain = 0
KDO1 091716Z 18005KT 18/07 A3019 RMK A01 T01820065  RH  046%=      5-min Rain = 0
KDO1 091717Z 19005KT 18/06 A3019 RMK A01 T01830061  RH  045%=      5-min Rain = 0
KDO1 091718Z 18006KT 18/07 A3019 RMK A01 T01840066  RH  046%=      5-min Rain = 0
KDO1 091719Z 18004KT 19/07 A3019 RMK A01 T01860068  RH  046%=      5-min Rain = 0
KDO1 091720Z 20005KT 19/07 A3019 RMK A01 T01860068  RH  046%=      5-min Rain = 0
KDO1 091721Z 17007KT 19/07 A3019 RMK A01 T01870066  RH  045%=      5-min Rain = 0
KDO1 091722Z 18005KT 19/06 A3019 RMK A01 T01890063  RH  044%=      5-min Rain = 0
KDO1 091723Z 19006KT 19/06 A3019 RMK A01 T01910062  RH  043%=      5-min Rain = 0
KDO1 091724Z 18006KT 19/06 A3019 RMK A01 T01900063  RH  043%=      5-min Rain = 0
KDO1 091725Z 18004KT 19/06 A3019 RMK A01 T01900063  RH  043%=      5-min Rain = 0
KDO1 091726Z 17006KT 19/06 A3019 RMK A01 T01920061  RH  042%=      5-min Rain = 0
KDO1 091727Z 17007KT 19/06 A3019 RMK A01 T01940056  RH  040%=      5-min Rain = 0
KDO1 091728Z 16006KT 20/06 A3019 RMK A01 T01950060  RH  041%=      5-min Rain = 0
KDO1 091729Z 18007KT 20/06 A3019 RMK A01 T01960062  RH  042%=      5-min Rain = 0
KDO1 091730Z 18006KT 20/06 A3019 RMK A01 T01960064  RH  042%=      5-min Rain = 0
KDO1 091731Z 17005KT 20/06 A3019 RMK A01 T01970064  RH  042%=      5-min Rain = 0
KDO1 091732Z 17007KT 20/06 A3019 RMK A01 T01980063  RH  041%=      5-min Rain = 0
KDO1 091733Z 18006KT 20/06 A3019 RMK A01 T02000063  RH  041%=      5-min Rain = 0
KDO1 091734Z 20007KT 20/06 A3019 RMK A01 T02010061  RH  040%=      5-min Rain = 0
KDO1 091735Z 19008KT 20/06 A3019 RMK A01 T02010058  RH  039%=      5-min Rain = 0
KDO1 091736Z 18007KT 20/06 A3019 RMK A01 T02010059  RH  039%=      5-min Rain = 0
KDO1 091737Z 19006KT 20/06 A3019 RMK A01 T02010057  RH  039%=      5-min Rain = 0
KDO1 091738Z 20007KT 20/06 A3019 RMK A01 T02000055  RH  039%=      5-min Rain = 0
KDO1 091739Z 20007KT 20/05 A3018 RMK A01 T02000050  RH  037%=      5-min Rain = 0
KDO1 091740Z 18006KT 20/05 A3018 RMK A01 T02010051  RH  037%=      5-min Rain = 0
KDO1 091741Z 18006KT 20/05 A3018 RMK A01 T02030050  RH  037%=      5-min Rain = 0
KDO1 091742Z 19005KT 20/05 A3018 RMK A01 T02040051  RH  037%=      5-min Rain = 0
KDO1 091743Z 20008KT 21/05 A3018 RMK A01 T02050050  RH  036%=      5-min Rain = 0
KDO1 091744Z 18007KT 21/05 A3018 RMK A01 T02050046  RH  035%=      5-min Rain = 0
KDO1 091745Z 19007KT 20/04 A3018 RMK A01 T02040044  RH  035%=      5-min Rain = 0
KDO1 091746Z 18006KT 20/05 A3018 RMK A01 T02040048  RH  036%=      5-min Rain = 0
KDO1 091747Z 16005KT 21/05 A3018 RMK A01 T02050045  RH  035%=      5-min Rain = 0
KDO1 091748Z 19006KT 21/04 A3018 RMK A01 T02050044  RH  035%=      5-min Rain = 0
KDO1 091749Z 18006KT 21/04 A3018 RMK A01 T02070037  RH  033%=      5-min Rain = 0
KDO1 091750Z 18005KT 21/04 A3018 RMK A01 T02080036  RH  032%=      5-min Rain = 0
KDO1 091751Z 19007KT 21/04 A3018 RMK A01 T02080039  RH  033%=      5-min Rain = 0
KDO1 091752Z 19007KT 21/04 A3018 RMK A01 T02080043  RH  034%=      5-min Rain = 0
KDO1 091753Z 18007KT 21/04 A3018 RMK A01 T02080042  RH  034%=      5-min Rain = 0
KDO1 091754Z 19007KT 21/03 A3018 RMK A01 T02080033  RH  032%=      5-min Rain = 0
KDO1 091755Z 18006KT 21/03 A3018 RMK A01 T02080034  RH  032%=      5-min Rain = 0
KDO1 091756Z 17006KT 21/04 A3018 RMK A01 T02090035  RH  032%=      5-min Rain = 0
KDO1 091757Z 18005KT 21/04 A3018 RMK A01 T02100036  RH  032%=      5-min Rain = 0
KDO1 091758Z 19004KT 21/04 A3018 RMK A01 T02100039  RH  032%=      5-min Rain = 0
KDO1 091759Z 16005KT 21/04 A3018 RMK A01 T02100037  RH  032%=      5-min Rain = 0
KDO1 091800Z 15005KT 21/04 A3018 RMK A01 T02120037  RH  031%=      5-min Rain = 0
KDO1 091801Z 16005KT 21/04 A3018 RMK A01 T02140040  RH  032%=      5-min Rain = 0
KDO1 091802Z 17005KT 22/04 A3018 RMK A01 T02160038  RH  031%=      5-min Rain = 0
KDO1 091803Z 19006KT 22/03 A3018 RMK A01 T02180033  RH  030%=      5-min Rain = 0
KDO1 091804Z 19007KT 22/03 A3018 RMK A01 T02190027  RH  028%=      5-min Rain = 0
KDO1 091805Z 17006KT 22/03 A3018 RMK A01 T02180028  RH  029%=      5-min Rain = 0
KDO1 091806Z 16007KT 22/02 A3018 RMK A01 T02170024  RH  028%=      5-min Rain = 0
KDO1 091807Z 15006KT 22/02 A3018 RMK A01 T02160020  RH  027%=      5-min Rain = 0
KDO1 091808Z 16006KT 22/02 A3018 RMK A01 T02160017  RH  027%=      5-min Rain = 0
KDO1 091809Z 15005KT 22/02 A3018 RMK A01 T02170022  RH  028%=      5-min Rain = 0
KDO1 091810Z 16004KT 22/02 A3017 RMK A01 T02170023  RH  028%=      5-min Rain = 0
KDO1 091811Z 14004KT 22/02 A3017 RMK A01 T02160024  RH  028%=      5-min Rain = 0
KDO1 091812Z 15007KT 22/03 A3017 RMK A01 T02180025  RH  028%=      5-min Rain = 0
KDO1 091813Z 14006KT 22/03 A3017 RMK A01 T02190025  RH  028%=      5-min Rain = 0
KDO1 091814Z 15004KT 22/02 A3017 RMK A01 T02190022  RH  027%=      5-min Rain = 0
KDO1 091815Z 16003KT 22/02 A3017 RMK A01 T02180024  RH  028%=      5-min Rain = 0
KDO1 091816Z 16001KT 22/02 A3017 RMK A01 T02180024  RH  028%=      5-min Rain = 0
KDO1 091817Z 16003KT 22/02 A3017 RMK A01 T02190023  RH  027%=      5-min Rain = 0
KDO1 091818Z 18005KT 22/02 A3017 RMK A01 T02200023  RH  027%=      5-min Rain = 0
KDO1 091819Z 16005KT 22/02 A3017 RMK A01 T02200020  RH  027%=      5-min Rain = 0
KDO1 091820Z 14004KT 22/02 A3017 RMK A01 T02180019  RH  027%=      5-min Rain = 0
KDO1 091821Z 17004KT 22/02 A3017 RMK A01 T02180020  RH  027%=      5-min Rain = 0
KDO1 091822Z 18004KT 22/02 A3017 RMK A01 T02180017  RH  026%=      5-min Rain = 0
KDO1 091823Z 17004KT 22/02 A3017 RMK A01 T02180016  RH  026%=      5-min Rain = 0
KDO1 091824Z 16003KT 22/02 A3017 RMK A01 T02190018  RH  026%=      5-min Rain = 0
KDO1 091825Z 14004KT 22/02 A3016 RMK A01 T02200015  RH  026%=      5-min Rain = 0
KDO1 091826Z 16004KT 22/02 A3016 RMK A01 T02210017  RH  026%=      5-min Rain = 0
KDO1 091827Z 17004KT 22/02 A3016 RMK A01 T02220018  RH  026%=      5-min Rain = 0
KDO1 091828Z 16003KT 22/02 A3016 RMK A01 T02230020  RH  026%=      5-min Rain = 0
KDO1 091829Z 18002KT 22/02 A3016 RMK A01 T02230018  RH  026%=      5-min Rain = 0
KDO1 091830Z 17004KT 22/02 A3016 RMK A01 T02240018  RH  026%=      5-min Rain = 0
KDO1 091831Z 16006KT 23/02 A3016 RMK A01 T02250019  RH  026%=      5-min Rain = 0
KDO1 091832Z 16004KT 23/02 A3016 RMK A01 T02260019  RH  026%=      5-min Rain = 0
KDO1 091833Z 17004KT 23/02 A3016 RMK A01 T02260021  RH  026%=      5-min Rain = 0
KDO1 091834Z 19005KT 23/02 A3016 RMK A01 T02260021  RH  026%=      5-min Rain = 0
KDO1 091835Z 17004KT 23/02 A3016 RMK A01 T02260021  RH  026%=      5-min Rain = 0
KDO1 091836Z 18002KT 23/02 A3015 RMK A01 T02250020  RH  026%=      5-min Rain = 0
KDO1 091837Z 17007KT 23/02 A3015 RMK A01 T02250021  RH  026%=      5-min Rain = 0
KDO1 091838Z 18006KT 23/02 A3015 RMK A01 T02260019  RH  026%=      5-min Rain = 0
KDO1 091839Z 16004KT 23/02 A3015 RMK A01 T02250021  RH  026%=      5-min Rain = 0
KDO1 091840Z 14003KT 23/02 A3015 RMK A01 T02250021  RH  026%=      5-min Rain = 0
KDO1 091841Z 16006KT 23/02 A3015 RMK A01 T02250022  RH  026%=      5-min Rain = 0
KDO1 091842Z 18007KT 23/03 A3015 RMK A01 T02260025  RH  027%=      5-min Rain = 0
KDO1 091843Z 18005KT 23/03 A3015 RMK A01 T02270027  RH  027%=      5-min Rain = 0
KDO1 091844Z 18005KT 23/03 A3015 RMK A01 T02300029  RH  027%=      5-min Rain = 0
KDO1 091845Z 17006KT 23/03 A3015 RMK A01 T02320026  RH  026%=      5-min Rain = 0
KDO1 091846Z 17004KT 23/03 A3015 RMK A01 T02290025  RH  026%=      5-min Rain = 0
KDO1 091847Z 17004KT 23/03 A3015 RMK A01 T02290025  RH  026%=      5-min Rain = 0
KDO1 091848Z 16006KT 23/03 A3015 RMK A01 T02290027  RH  026%=      5-min Rain = 0
KDO1 091849Z 15005KT 23/02 A3015 RMK A01 T02280024  RH  026%=      5-min Rain = 0
KDO1 091850Z 15005KT 23/03 A3014 RMK A01 T02270026  RH  027%=      5-min Rain = 0
KDO1 091851Z 14005KT 23/03 A3014 RMK A01 T02280026  RH  027%=      5-min Rain = 0
KDO1 091852Z 16007KT 23/03 A3014 RMK A01 T02290027  RH  027%=      5-min Rain = 0
KDO1 091853Z 18007KT 23/03 A3014 RMK A01 T02300028  RH  027%=      5-min Rain = 0
KDO1 091854Z 18007KT 23/03 A3014 RMK A01 T02300029  RH  027%=      5-min Rain = 0
KDO1 091855Z 17008KT 23/03 A3014 RMK A01 T02290031  RH  027%=      5-min Rain = 0
KDO1 091856Z 20005KT 23/03 A3014 RMK A01 T02290031  RH  027%=      5-min Rain = 0
KDO1 091857Z 17004KT 23/03 A3014 RMK A01 T02300033  RH  028%=      5-min Rain = 0
KDO1 091858Z 17006KT 23/03 A3014 RMK A01 T02320031  RH  027%=      5-min Rain = 0
KDO1 091859Z 16005KT 23/03 A3014 RMK A01 T02320028  RH  026%=      5-min Rain = 0
KDO1 091900Z 14006KT 23/03 A3014 RMK A01 T02320029  RH  026%=      5-min Rain = 0
KDO1 091901Z 14007KT 23/03 A3013 RMK A01 T02320028  RH  026%=      5-min Rain = 0
KDO1 091902Z 15005KT 23/03 A3013 RMK A01 T02320030  RH  027%=      5-min Rain = 0
KDO1 091903Z 18008KT 24/03 A3013 RMK A01 T02350032  RH  027%=      5-min Rain = 0
KDO1 091904Z 19009KT 24/03 A3013 RMK A01 T02360031  RH  026%=      5-min Rain = 0
KDO1 091905Z 18007KT 23/03 A3013 RMK A01 T02340030  RH  026%=      5-min Rain = 0
KDO1 091906Z 17007KT 23/03 A3013 RMK A01 T02340030  RH  026%=      5-min Rain = 0
KDO1 091907Z 18004KT 23/03 A3013 RMK A01 T02340031  RH  026%=      5-min Rain = 0
KDO1 091908Z 21007KT 24/03 A3013 RMK A01 T02360026  RH  025%=      5-min Rain = 0
KDO1 091909Z 21006KT 24/02 A3013 RMK A01 T02380018  RH  024%=      5-min Rain = 0
KDO1 091910Z 20007KT 24/02 A3013 RMK A01 T02350017  RH  024%=      5-min Rain = 0
KDO1 091911Z 19007KT 24/02 A3013 RMK A01 T02350022  RH  025%=      5-min Rain = 0
KDO1 091912Z 20005KT 24/02 A3013 RMK A01 T02350021  RH  025%=      5-min Rain = 0
KDO1 091913Z 19007KT 24/02 A3013 RMK A01 T02360024  RH  025%=      5-min Rain = 0
KDO1 091914Z 18008KT 24/02 A3013 RMK A01 T02360020  RH  024%=      5-min Rain = 0
KDO1 091915Z 18005KT 23/02 A3013 RMK A01 T02340022  RH  025%=      5-min Rain = 0
KDO1 091916Z 16006KT 24/02 A3013 RMK A01 T02360022  RH  025%=      5-min Rain = 0
KDO1 091917Z 18006KT 24/02 A3013 RMK A01 T02360022  RH  025%=      5-min Rain = 0
KDO1 091918Z 19004KT 24/02 A3013 RMK A01 T02360023  RH  025%=      5-min Rain = 0
KDO1 091919Z 17006KT 24/02 A3013 RMK A01 T02350024  RH  025%=      5-min Rain = 0
KDO1 091920Z 18005KT 24/02 A3013 RMK A01 T02350024  RH  025%=      5-min Rain = 0
KDO1 091921Z 18006KT 24/03 A3012 RMK A01 T02350025  RH  025%=      5-min Rain = 0
KDO1 091922Z 18008KT 24/03 A3012 RMK A01 T02360026  RH  025%=      5-min Rain = 0
KDO1 091923Z 19007KT 24/03 A3012 RMK A01 T02370026  RH  025%=      5-min Rain = 0
KDO1 091924Z 19005KT 24/03 A3012 RMK A01 T02380026  RH  025%=      5-min Rain = 0
KDO1 091925Z 18007KT 24/03 A3012 RMK A01 T02370027  RH  025%=      5-min Rain = 0
KDO1 091926Z 19007KT 24/03 A3012 RMK A01 T02390031  RH  026%=      5-min Rain = 0
KDO1 091927Z 17005KT 24/03 A3012 RMK A01 T02400028  RH  025%=      5-min Rain = 0
KDO1 091928Z 17008KT 24/03 A3012 RMK A01 T02390028  RH  025%=      5-min Rain = 0
KDO1 091929Z 17009KT 24/03 A3012 RMK A01 T02380027  RH  025%=      5-min Rain = 0
KDO1 091930Z 15006KT 24/03 A3012 RMK A01 T02370027  RH  025%=      5-min Rain = 0
KDO1 091931Z 15005KT 24/03 A3012 RMK A01 T02360027  RH  026%=      5-min Rain = 0
KDO1 091932Z 18004KT 24/03 A3012 RMK A01 T02350028  RH  026%=      5-min Rain = 0
KDO1 091933Z 19008KT 24/03 A3012 RMK A01 T02350027  RH  026%=      5-min Rain = 0
KDO1 091934Z 21005KT 24/03 A3012 RMK A01 T02370029  RH  026%=      5-min Rain = 0
KDO1 091935Z 19008KT 24/03 A3012 RMK A01 T02380031  RH  026%=      5-min Rain = 0
KDO1 091936Z 17008KT 24/03 A3012 RMK A01 T02400033  RH  026%=      5-min Rain = 0
KDO1 091937Z 18009KT 24/03 A3011 RMK A01 T02420031  RH  025%=      5-min Rain = 0
KDO1 091938Z 22008KT 24/03 A3011 RMK A01 T02420028  RH  025%=      5-min Rain = 0
KDO1 091939Z 22008KT 24/03 A3011 RMK A01 T02420026  RH  025%=      5-min Rain = 0
KDO1 091940Z 18009KT 24/03 A3011 RMK A01 T02410029  RH  025%=      5-min Rain = 0
KDO1 091941Z 18007KT 24/03 A3011 RMK A01 T02410028  RH  025%=      5-min Rain = 0
KDO1 091942Z 18010KT 24/03 A3011 RMK A01 T02400027  RH  025%=      5-min Rain = 0
KDO1 091943Z 17008KT 24/03 A3011 RMK A01 T02390029  RH  025%=      5-min Rain = 0
KDO1 091944Z 17006KT 24/03 A3011 RMK A01 T02410031  RH  025%=      5-min Rain = 0
KDO1 091945Z 18010KT 25/03 A3011 RMK A01 T02450031  RH  025%=      5-min Rain = 0
KDO1 091946Z 17008KT 25/03 A3011 RMK A01 T02460028  RH  024%=      5-min Rain = 0
KDO1 091947Z 16007KT 25/03 A3011 RMK A01 T02450027  RH  024%=      5-min Rain = 0
KDO1 091948Z 16007KT 25/03 A3011 RMK A01 T02450028  RH  024%=      5-min Rain = 0
KDO1 091949Z 17006KT 25/03 A3011 RMK A01 T02450029  RH  025%=      5-min Rain = 0
KDO1 091950Z 17008KT 25/03 A3011 RMK A01 T02450028  RH  024%=      5-min Rain = 0
KDO1 091951Z 18010KT 24/03 A301 RMK A01 T02440026  RH  024%=      5-min Rain = 0
KDO1 091952Z 17007KT 24/03 A301 RMK A01 T02430027  RH  024%=      5-min Rain = 0
KDO1 091953Z 17010KT 24/03 A301 RMK A01 T02420026  RH  024%=      5-min Rain = 0
KDO1 091954Z 16009KT 24/03 A301 RMK A01 T02420025  RH  024%=      5-min Rain = 0
KDO1 091955Z 16008KT 24/02 A301 RMK A01 T02410024  RH  024%=      5-min Rain = 0
KDO1 091956Z 15008KT 24/03 A301 RMK A01 T02400025  RH  024%=      5-min Rain = 0
KDO1 091957Z 16007KT 24/02 A301 RMK A01 T02410024  RH  024%=      5-min Rain = 0
KDO1 091958Z 16007KT 24/02 A301 RMK A01 T02420024  RH  024%=      5-min Rain = 0
KDO1 091959Z 17007KT 24/02 A301 RMK A01 T02430023  RH  024%=      5-min Rain = 0
KDO1 092000Z 17012KT 24/02 A301 RMK A01 T02430021  RH  023%=      5-min Rain = 0
KDO1 092001Z 17009KT 24/02 A301 RMK A01 T02430019  RH  023%=      5-min Rain = 0
KDO1 092002Z 16009KT 25/02 A301 RMK A01 T02450019  RH  023%=      5-min Rain = 0
KDO1 092003Z 18010KT 25/02 A301 RMK A01 T02460017  RH  022%=      5-min Rain = 0
KDO1 092004Z 18007KT 25/02 A301 RMK A01 T02450017  RH  022%=      5-min Rain = 0
KDO1 092005Z 16007KT 25/02 A301 RMK A01 T02460018  RH  022%=      5-min Rain = 0
KDO1 092006Z 17008KT 25/02 A301 RMK A01 T02470017  RH  022%=      5-min Rain = 0
KDO1 092007Z 19008KT 25/02 A301 RMK A01 T02470017  RH  022%=      5-min Rain = 0
KDO1 092008Z 15009KT 25/02 A301 RMK A01 T02480018  RH  022%=      5-min Rain = 0
KDO1 092009Z 16008KT 25/02 A301 RMK A01 T02490015  RH  022%=      5-min Rain = 0
KDO1 092010Z 17009KT 25/02 A301 RMK A01 T02480015  RH  022%=      5-min Rain = 0
KDO1 092011Z 16008KT 25/01 A301 RMK A01 T02470014  RH  022%=      5-min Rain = 0
KDO1 092012Z 18007KT 25/01 A301 RMK A01 T02470013  RH  022%=      5-min Rain = 0
KDO1 092013Z 18009KT 25/01 A301 RMK A01 T02470012  RH  021%=      5-min Rain = 0
KDO1 092014Z 18008KT 25/01 A301 RMK A01 T02470008  RH  021%=      5-min Rain = 0
KDO1 092015Z 17006KT 25/01 A301 RMK A01 T02470008  RH  021%=      5-min Rain = 0
KDO1 092016Z 17006KT 25/01 A3009 RMK A01 T02480010  RH  021%=      5-min Rain = 0
KDO1 092017Z 18011KT 25/01 A3009 RMK A01 T02490008  RH  021%=      5-min Rain = 0
KDO1 092018Z 17009KT 25/01 A3009 RMK A01 T02480006  RH  020%=      5-min Rain = 0
KDO1 092019Z 15008KT 25/01 A3009 RMK A01 T02490006  RH  020%=      5-min Rain = 0
KDO1 092020Z 17009KT 25/01 A3009 RMK A01 T02500006  RH  020%=      5-min Rain = 0
KDO1 092021Z 18008KT 25/01 A3009 RMK A01 T02500005  RH  020%=      5-min Rain = 0
KDO1 092022Z 19009KT 25/00 A3009 RMK A01 T02510002  RH  019%=      5-min Rain = 0
KDO1 092023Z 18009KT 25/M01 A3009 RMK A01 T02521005  RH  018%=      5-min Rain = 0
KDO1 092024Z 18008KT 25/M01 A3009 RMK A01 T02521006  RH  018%=      5-min Rain = 0
KDO1 092025Z 18007KT 25/M01 A3009 RMK A01 T02511005  RH  019%=      5-min Rain = 0
KDO1 092026Z 17006KT 25/M01 A3009 RMK A01 T02521006  RH  018%=      5-min Rain = 0
KDO1 092027Z 18008KT 25/M01 A3009 RMK A01 T02531005  RH  018%=      5-min Rain = 0
KDO1 092028Z 18010KT 25/M00 A3009 RMK A01 T02541004  RH  018%=      5-min Rain = 0
KDO1 092029Z 20009KT 25/M01 A3009 RMK A01 T02541009  RH  018%=      5-min Rain = 0
KDO1 092030Z 21009KT 25/M01 A3009 RMK A01 T02531006  RH  018%=      5-min Rain = 0
KDO1 092031Z 19006KT 25/M01 A3009 RMK A01 T02521008  RH  018%=      5-min Rain = 0
KDO1 092032Z 20010KT 25/M01 A3009 RMK A01 T02521007  RH  018%=      5-min Rain = 0
KDO1 092033Z 19008KT 25/M01 A3009 RMK A01 T02521009  RH  018%=      5-min Rain = 0
KDO1 092034Z 19008KT 25/M01 A3009 RMK A01 T02521007  RH  018%=      5-min Rain = 0
KDO1 092035Z 18005KT 25/M01 A3009 RMK A01 T02521010  RH  018%=      5-min Rain = 0
KDO1 092036Z 19006KT 25/M01 A3009 RMK A01 T02531011  RH  017%=      5-min Rain = 0
KDO1 092037Z 19008KT 25/M01 A3009 RMK A01 T02531007  RH  018%=      5-min Rain = 0
KDO1 092038Z 18006KT 25/M00 A3009 RMK A01 T02531004  RH  018%=      5-min Rain = 0
KDO1 092039Z 20007KT 25/M00 A3009 RMK A01 T02531001  RH  019%=      5-min Rain = 0
KDO1 092040Z 17006KT 25/00 A3009 RMK A01 T02540000  RH  019%=      5-min Rain = 0
KDO1 092041Z 17008KT 26/M00 A3009 RMK A01 T02551002  RH  018%=      5-min Rain = 0
KDO1 092042Z 18007KT 25/M00 A3009 RMK A01 T02541004  RH  018%=      5-min Rain = 0
KDO1 092043Z 18009KT 25/M00 A3009 RMK A01 T02531003  RH  019%=      5-min Rain = 0
KDO1 092044Z 19009KT 25/00 A3009 RMK A01 T02540000  RH  019%=      5-min Rain = 0
KDO1 092045Z 20009KT 25/M00 A3009 RMK A01 T02541004  RH  018%=      5-min Rain = 0
KDO1 092046Z 21006KT 25/M01 A3009 RMK A01 T02541007  RH  018%=      5-min Rain = 0
KDO1 092047Z 22008KT 25/M01 A3009 RMK A01 T02531009  RH  018%=      5-min Rain = 0
KDO1 092048Z 23005KT 25/M01 A3009 RMK A01 T02521012  RH  018%=      5-min Rain = 0
KDO1 092049Z 20005KT 25/M01 A3009 RMK A01 T02511012  RH  018%=      5-min Rain = 0
KDO1 092050Z 18006KT 25/M01 A3009 RMK A01 T02511007  RH  018%=      5-min Rain = 0
KDO1 092051Z 18007KT 25/00 A3009 RMK A01 T02530003  RH  019%=      5-min Rain = 0
KDO1 092052Z 19009KT 25/M01 A3009 RMK A01 T02541005  RH  018%=      5-min Rain = 0
KDO1 092053Z 19009KT 25/M01 A3009 RMK A01 T02541010  RH  017%=      5-min Rain = 0
KDO1 092054Z 20008KT 25/M01 A3009 RMK A01 T02541010  RH  018%=      5-min Rain = 0
KDO1 092055Z 19007KT 25/M01 A3009 RMK A01 T02541008  RH  018%=      5-min Rain = 0
KDO1 092056Z 21006KT 25/M01 A3009 RMK A01 T02541006  RH  018%=      5-min Rain = 0
KDO1 092057Z 21006KT 26/M01 A3008 RMK A01 T02551006  RH  018%=      5-min Rain = 0
KDO1 092058Z 18007KT 26/M01 A3008 RMK A01 T02551006  RH  018%=      5-min Rain = 0
KDO1 092059Z 16008KT 26/M01 A3008 RMK A01 T02551009  RH  018%=      5-min Rain = 0
KDO1 092100Z 21009G16KT 25/M01 A3008 RMK A01 T02541009  RH  018%=      5-min Rain = 0
KDO1 092101Z 21007KT 26/M01 A3008 RMK A01 T02551013  RH  017%=      5-min Rain = 0
KDO1 092102Z 19010KT 25/M01 A3008 RMK A01 T02541012  RH  017%=      5-min Rain = 0
KDO1 092103Z 19008KT 25/M01 A3008 RMK A01 T02531011  RH  018%=      5-min Rain = 0
KDO1 092104Z 17006KT 25/M01 A3008 RMK A01 T02521009  RH  018%=      5-min Rain = 0
KDO1 092105Z 19006KT 25/M01 A3008 RMK A01 T02521009  RH  018%=      5-min Rain = 0
KDO1 092106Z 19009KT 25/M01 A3008 RMK A01 T02541008  RH  018%=      5-min Rain = 0
KDO1 092107Z 19009KT 26/M01 A3008 RMK A01 T02551010  RH  017%=      5-min Rain = 0
KDO1 092108Z 19008KT 26/M01 A3008 RMK A01 T02551009  RH  018%=      5-min Rain = 0
KDO1 092109Z 19008KT 26/M01 A3008 RMK A01 T02561010  RH  017%=      5-min Rain = 0
KDO1 092110Z 21007KT 26/M01 A3008 RMK A01 T02561011  RH  017%=      5-min Rain = 0
KDO1 092111Z 21006KT 25/M01 A3008 RMK A01 T02541010  RH  017%=      5-min Rain = 0
KDO1 092112Z 19008KT 26/M01 A3008 RMK A01 T02551009  RH  018%=      5-min Rain = 0
KDO1 092113Z 18008KT 26/M01 A3008 RMK A01 T02551011  RH  017%=      5-min Rain = 0
KDO1 092114Z 19009KT 26/M01 A3008 RMK A01 T02561010  RH  017%=      5-min Rain = 0
KDO1 092115Z 19011KT 26/M01 A3008 RMK A01 T02551009  RH  017%=      5-min Rain = 0
KDO1 092116Z 19009KT 26/M01 A3008 RMK A01 T02551009  RH  018%=      5-min Rain = 0
KDO1 092117Z 20007KT 26/M01 A3008 RMK A01 T02551009  RH  018%=      5-min Rain = 0
KDO1 092118Z 21007KT 26/M01 A3008 RMK A01 T02561011  RH  017%=      5-min Rain = 0
KDO1 092119Z 20006KT 26/M01 A3008 RMK A01 T02551012  RH  017%=      5-min Rain = 0
KDO1 092120Z 21008KT 25/M01 A3008 RMK A01 T02541010  RH  017%=      5-min Rain = 0
KDO1 092121Z 21007KT 26/M01 A3008 RMK A01 T02551008  RH  018%=      5-min Rain = 0
KDO1 092122Z 20007KT 26/M01 A3008 RMK A01 T02561008  RH  018%=      5-min Rain = 0
KDO1 092123Z 18010KT 26/M01 A3008 RMK A01 T02561006  RH  018%=      5-min Rain = 0
KDO1 092124Z 18008KT 26/M01 A3008 RMK A01 T02561008  RH  018%=      5-min Rain = 0
KDO1 092125Z 18009KT 26/M01 A3008 RMK A01 T02561008  RH  018%=      5-min Rain = 0
KDO1 092126Z 18008KT 26/M01 A3007 RMK A01 T02551009  RH  018%=      5-min Rain = 0
KDO1 092127Z 19010KT 26/M01 A3007 RMK A01 T02551006  RH  018%=      5-min Rain = 0
KDO1 092128Z 18010KT 26/M01 A3008 RMK A01 T02551006  RH  018%=      5-min Rain = 0
KDO1 092129Z 19010KT 25/M01 A3007 RMK A01 T02541006  RH  018%=      5-min Rain = 0
KDO1 092130Z 21009KT 25/M00 A3007 RMK A01 T02541003  RH  018%=      5-min Rain = 0
KDO1 092131Z 20009KT 25/M00 A3008 RMK A01 T02541003  RH  018%=      5-min Rain = 0
KDO1 092132Z 20010KT 26/M00 A3008 RMK A01 T02551002  RH  018%=      5-min Rain = 0
KDO1 092133Z 19010KT 26/M00 A3007 RMK A01 T02551004  RH  018%=      5-min Rain = 0
KDO1 092134Z 19012KT 25/M00 A3007 RMK A01 T02541004  RH  018%=      5-min Rain = 0
KDO1 092135Z 20011KT 25/M00 A3007 RMK A01 T02531003  RH  018%=      5-min Rain = 0
KDO1 092136Z 20009KT 25/M00 A3007 RMK A01 T02531003  RH  018%=      5-min Rain = 0
KDO1 092137Z 20008KT 25/M00 A3007 RMK A01 T02531003  RH  018%=      5-min Rain = 0
KDO1 092138Z 19007KT 25/M01 A3007 RMK A01 T02541005  RH  018%=      5-min Rain = 0
KDO1 092139Z 19009KT 25/M00 A3007 RMK A01 T02541003  RH  018%=      5-min Rain = 0
KDO1 092140Z 18007KT 25/M01 A3007 RMK A01 T02541005  RH  018%=      5-min Rain = 0
KDO1 092141Z 19007KT 25/M00 A3007 RMK A01 T02531004  RH  018%=      5-min Rain = 0
KDO1 092142Z 18007KT 25/M00 A3007 RMK A01 T02531003  RH  019%=      5-min Rain = 0
KDO1 092143Z 19007KT 25/M00 A3007 RMK A01 T02541002  RH  019%=      5-min Rain = 0
KDO1 092144Z 18009KT 26/M00 A3007 RMK A01 T02551002  RH  019%=      5-min Rain = 0
KDO1 092145Z 18009KT 26/00 A3007 RMK A01 T02550000  RH  019%=      5-min Rain = 0
KDO1 092146Z 19007KT 26/00 A3007 RMK A01 T02550002  RH  019%=      5-min Rain = 0
KDO1 092147Z 18008KT 26/00 A3007 RMK A01 T02560002  RH  019%=      5-min Rain = 0
KDO1 092148Z 18009KT 26/M00 A3007 RMK A01 T02561001  RH  019%=      5-min Rain = 0
KDO1 092149Z 19011G18KT 26/M00 A3007 RMK A01 T02551001  RH  019%=      5-min Rain = 0
KDO1 092150Z 21010KT 26/M00 A3007 RMK A01 T02551001  RH  019%=      5-min Rain = 0
KDO1 092151Z 20008KT 25/M00 A3007 RMK A01 T02541004  RH  018%=      5-min Rain = 0
KDO1 092152Z 19007KT 25/M00 A3007 RMK A01 T02531002  RH  019%=      5-min Rain = 0
KDO1 092153Z 19009KT 25/00 A3007 RMK A01 T02540000  RH  019%=      5-min Rain = 0
KDO1 092154Z 19010KT 26/M00 A3007 RMK A01 T02551002  RH  019%=      5-min Rain = 0
KDO1 092155Z 19008KT 26/M00 A3007 RMK A01 T02551002  RH  018%=      5-min Rain = 0
KDO1 092156Z 19010KT 25/M00 A3007 RMK A01 T02541002  RH  019%=      5-min Rain = 0
KDO1 092157Z 18009KT 25/M00 A3007 RMK A01 T02531003  RH  019%=      5-min Rain = 0
KDO1 092158Z 18008KT 25/M00 A3007 RMK A01 T02531001  RH  019%=      5-min Rain = 0
KDO1 092159Z 20008KT 25/M00 A3007 RMK A01 T02531001  RH  019%=      5-min Rain = 0
KDO1 092200Z 20008KT 25/M00 A3007 RMK A01 T02531003  RH  019%=      5-min Rain = 0
KDO1 092201Z 19007KT 25/M00 A3007 RMK A01 T02531001  RH  019%=      5-min Rain = 0
KDO1 092202Z 18011KT 25/M00 A3007 RMK A01 T02541001  RH  019%=      5-min Rain = 0
KDO1 092203Z 18011KT 25/M01 A3006 RMK A01 T02541005  RH  018%=      5-min Rain = 0
KDO1 092204Z 18010KT 25/M01 A3006 RMK A01 T02531007  RH  018%=      5-min Rain = 0
KDO1 092205Z 19009KT 25/M01 A3006 RMK A01 T02521006  RH  018%=      5-min Rain = 0
KDO1 092206Z 18009KT 25/M01 A3006 RMK A01 T02521006  RH  018%=      5-min Rain = 0
KDO1 092207Z 18008KT 25/M01 A3006 RMK A01 T02521006  RH  018%=      5-min Rain = 0
KDO1 092208Z 18010KT 25/M01 A3006 RMK A01 T02511005  RH  018%=      5-min Rain = 0
KDO1 092209Z 18009KT 25/M01 A3006 RMK A01 T02521005  RH  018%=      5-min Rain = 0
KDO1 092210Z 18008KT 25/M00 A3006 RMK A01 T02521004  RH  019%=      5-min Rain = 0
KDO1 092211Z 18008KT 25/M01 A3006 RMK A01 T02521005  RH  018%=      5-min Rain = 0
KDO1 092212Z 19008KT 25/M00 A3006 RMK A01 T02521004  RH  019%=      5-min Rain = 0
KDO1 092213Z 19008KT 25/M00 A3006 RMK A01 T02521003  RH  019%=      5-min Rain = 0
KDO1 092214Z 20010KT 25/M00 A3006 RMK A01 T02521004  RH  019%=      5-min Rain = 0
KDO1 092215Z 19009KT 25/M00 A3006 RMK A01 T02521003  RH  019%=      5-min Rain = 0
KDO1 092216Z 18008KT 25/M00 A3006 RMK A01 T02511001  RH  019%=      5-min Rain = 0
KDO1 092217Z 17009KT 25/M00 A3006 RMK A01 T02511001  RH  019%=      5-min Rain = 0
KDO1 092218Z 17010KT 25/M00 A3006 RMK A01 T02511001  RH  019%=      5-min Rain = 0
KDO1 092219Z 18008KT 25/M00 A3006 RMK A01 T02501002  RH  019%=      5-min Rain = 0
KDO1 092220Z 19006KT 25/00 A3006 RMK A01 T02500001  RH  019%=      5-min Rain = 0
KDO1 092221Z 19008KT 25/00 A3006 RMK A01 T02500002  RH  020%=      5-min Rain = 0
KDO1 092222Z 18006KT 25/00 A3006 RMK A01 T02500003  RH  020%=      5-min Rain = 0
KDO1 092223Z 18008KT 25/01 A3006 RMK A01 T02500006  RH  020%=      5-min Rain = 0
KDO1 092224Z 18008KT 25/01 A3006 RMK A01 T02500007  RH  020%=      5-min Rain = 0
KDO1 092225Z 18008KT 25/01 A3006 RMK A01 T02500011  RH  021%=      5-min Rain = 0
KDO1 092226Z 19007KT 25/01 A3006 RMK A01 T02500014  RH  021%=      5-min Rain = 0
KDO1 092227Z 20008KT 25/02 A3006 RMK A01 T02500016  RH  022%=      5-min Rain = 0
KDO1 092228Z 19006KT 25/02 A3006 RMK A01 T02500017  RH  022%=      5-min Rain = 0
KDO1 092229Z 19007KT 25/02 A3006 RMK A01 T02500017  RH  022%=      5-min Rain = 0
KDO1 092230Z 19009KT 25/02 A3006 RMK A01 T02500016  RH  022%=      5-min Rain = 0
KDO1 092231Z 20009KT 25/02 A3006 RMK A01 T02490018  RH  022%=      5-min Rain = 0
KDO1 092232Z 20010KT 25/02 A3006 RMK A01 T02480020  RH  022%=      5-min Rain = 0
KDO1 092233Z 20009KT 25/02 A3006 RMK A01 T02470020  RH  023%=      5-min Rain = 0
KDO1 092234Z 20008KT 25/02 A3006 RMK A01 T02470020  RH  023%=      5-min Rain = 0
KDO1 092235Z 20009KT 25/02 A3006 RMK A01 T02470020  RH  023%=      5-min Rain = 0
KDO1 092236Z 21010KT 25/02 A3006 RMK A01 T02470019  RH  023%=      5-min Rain = 0
KDO1 092237Z 20010KT 25/02 A3006 RMK A01 T02460021  RH  023%=      5-min Rain = 0
KDO1 092238Z 20010KT 25/02 A3006 RMK A01 T02460024  RH  023%=      5-min Rain = 0
KDO1 092239Z 20009KT 25/02 A3006 RMK A01 T02450024  RH  024%=      5-min Rain = 0
KDO1 092240Z 20009KT 25/03 A3006 RMK A01 T02450026  RH  024%=      5-min Rain = 0
KDO1 092241Z 19008KT 25/03 A3006 RMK A01 T02450028  RH  024%=      5-min Rain = 0
KDO1 092242Z 20008KT 24/03 A3006 RMK A01 T02440029  RH  025%=      5-min Rain = 0
KDO1 092243Z 19008KT 24/03 A3006 RMK A01 T02440029  RH  025%=      5-min Rain = 0
KDO1 092244Z 19008KT 24/03 A3006 RMK A01 T02440032  RH  025%=      5-min Rain = 0
KDO1 092245Z 19007KT 24/03 A3006 RMK A01 T02430034  RH  026%=      5-min Rain = 0
KDO1 092246Z 19007KT 24/04 A3006 RMK A01 T02420035  RH  026%=      5-min Rain = 0
KDO1 092247Z 18006KT 24/04 A3006 RMK A01 T02420036  RH  026%=      5-min Rain = 0
KDO1 092248Z 18007KT 24/04 A3006 RMK A01 T02410036  RH  026%=      5-min Rain = 0
KDO1 092249Z 18008KT 24/04 A3006 RMK A01 T02410036  RH  026%=      5-min Rain = 0
KDO1 092250Z 19008KT 24/04 A3006 RMK A01 T02400036  RH  026%=      5-min Rain = 0
KDO1 092251Z 19008KT 24/04 A3006 RMK A01 T02400036  RH  026%=      5-min Rain = 0
KDO1 092252Z 18008KT 24/04 A3006 RMK A01 T02390036  RH  027%=      5-min Rain = 0
KDO1 092253Z 18008KT 24/04 A3006 RMK A01 T02390037  RH  027%=      5-min Rain = 0
KDO1 092254Z 18008KT 24/04 A3006 RMK A01 T02380037  RH  027%=      5-min Rain = 0
KDO1 092255Z 18008KT 24/04 A3006 RMK A01 T02370037  RH  027%=      5-min Rain = 0
KDO1 092256Z 18007KT 24/04 A3006 RMK A01 T02370036  RH  027%=      5-min Rain = 0
KDO1 092257Z 18007KT 24/04 A3006 RMK A01 T02360037  RH  027%=      5-min Rain = 0
KDO1 092258Z 18007KT 24/04 A3006 RMK A01 T02360038  RH  028%=      5-min Rain = 0
KDO1 092259Z 19007KT 24/04 A3006 RMK A01 T02350038  RH  028%=      5-min Rain = 0
KDO1 092300Z 18007KT 23/04 A3006 RMK A01 T02340038  RH  028%=      5-min Rain = 0
KDO1 092301Z 18006KT 23/04 A3006 RMK A01 T02340037  RH  028%=      5-min Rain = 0
KDO1 092302Z 18006KT 23/04 A3006 RMK A01 T02330037  RH  028%=      5-min Rain = 0
KDO1 092303Z 18006KT 23/04 A3006 RMK A01 T02330038  RH  028%=      5-min Rain = 0
KDO1 092304Z 18006KT 23/04 A3006 RMK A01 T02320038  RH  028%=      5-min Rain = 0
KDO1 092305Z 18006KT 23/04 A3006 RMK A01 T02310039  RH  029%=      5-min Rain = 0
KDO1 092306Z 18006KT 23/04 A3006 RMK A01 T02300039  RH  029%=      5-min Rain = 0
KDO1 092307Z 18006KT 23/04 A3006 RMK A01 T02290038  RH  029%=      5-min Rain = 0
KDO1 092308Z 17005KT 23/04 A3006 RMK A01 T02290038  RH  029%=      5-min Rain = 0
KDO1 092309Z 18006KT 23/04 A3006 RMK A01 T02280038  RH  029%=      5-min Rain = 0
KDO1 092310Z 18006KT 23/04 A3006 RMK A01 T02270037  RH  029%=      5-min Rain = 0
KDO1 092311Z 18006KT 23/04 A3006 RMK A01 T02260037  RH  029%=      5-min Rain = 0
KDO1 092312Z 18006KT 23/04 A3006 RMK A01 T02250037  RH  029%=      5-min Rain = 0
KDO1 092313Z 18005KT 23/04 A3006 RMK A01 T02250037  RH  029%=      5-min Rain = 0
KDO1 092314Z 18006KT 22/04 A3006 RMK A01 T02240037  RH  029%=      5-min Rain = 0
KDO1 092315Z 18006KT 22/04 A3006 RMK A01 T02230037  RH  030%=      5-min Rain = 0
KDO1 092316Z 18006KT 22/04 A3006 RMK A01 T02220037  RH  030%=      5-min Rain = 0
KDO1 092317Z 18006KT 22/04 A3006 RMK A01 T02210037  RH  030%=      5-min Rain = 0
KDO1 092318Z 18006KT 22/04 A3006 RMK A01 T02200038  RH  030%=      5-min Rain = 0
KDO1 092319Z 18006KT 22/04 A3006 RMK A01 T02200038  RH  030%=      5-min Rain = 0
KDO1 092320Z 17006KT 22/04 A3006 RMK A01 T02180038  RH  031%=      5-min Rain = 0
KDO1 092321Z 17006KT 22/04 A3006 RMK A01 T02180038  RH  031%=      5-min Rain = 0
KDO1 092322Z 17006KT 22/04 A3006 RMK A01 T02170037  RH  031%=      5-min Rain = 0
KDO1 092323Z 17006KT 22/04 A3006 RMK A01 T02160036  RH  031%=      5-min Rain = 0
KDO1 092324Z 17006KT 22/04 A3006 RMK A01 T02150036  RH  031%=      5-min Rain = 0
KDO1 092325Z 17006KT 21/04 A3006 RMK A01 T02140036  RH  031%=      5-min Rain = 0
KDO1 092326Z 17006KT 21/04 A3006 RMK A01 T02130036  RH  031%=      5-min Rain = 0
KDO1 092327Z 17006KT 21/04 A3006 RMK A01 T02120035  RH  031%=      5-min Rain = 0
KDO1 092328Z 17006KT 21/04 A3006 RMK A01 T02110035  RH  031%=      5-min Rain = 0
KDO1 092329Z 17006KT 21/04 A3006 RMK A01 T02100035  RH  032%=      5-min Rain = 0
KDO1 092330Z 17006KT 21/04 A3006 RMK A01 T02100036  RH  032%=      5-min Rain = 0
KDO1 092331Z 16006KT 21/04 A3006 RMK A01 T02080035  RH  032%=      5-min Rain = 0
KDO1 092332Z 16006KT 21/04 A3006 RMK A01 T02080035  RH  032%=      5-min Rain = 0
KDO1 092333Z 16006KT 21/04 A3006 RMK A01 T02070036  RH  032%=      5-min Rain = 0
KDO1 092334Z 16006KT 21/04 A3006 RMK A01 T02060035  RH  032%=      5-min Rain = 0
KDO1 092335Z 17007KT 21/04 A3006 RMK A01 T02060035  RH  033%=      5-min Rain = 0
KDO1 092336Z 17007KT 21/04 A3006 RMK A01 T02050035  RH  033%=      5-min Rain = 0
KDO1 092337Z 17008KT 20/04 A3006 RMK A01 T02040035  RH  033%=      5-min Rain = 0
KDO1 092338Z 17008KT 20/04 A3006 RMK A01 T02030035  RH  033%=      5-min Rain = 0
KDO1 092339Z 17008KT 20/04 A3006 RMK A01 T02030035  RH  033%=      5-min Rain = 0
KDO1 092340Z 17007KT 20/04 A3006 RMK A01 T02040036  RH  033%=      5-min Rain = 0
KDO1 092341Z 17007KT 20/04 A3006 RMK A01 T02030035  RH  033%=      5-min Rain = 0
KDO1 092342Z 16007KT 20/04 A3006 RMK A01 T02030036  RH  033%=      5-min Rain = 0
KDO1 092343Z 16007KT 20/04 A3006 RMK A01 T02030036  RH  033%=      5-min Rain = 0
KDO1 092344Z 16007KT 20/04 A3006 RMK A01 T02020035  RH  033%=      5-min Rain = 0
KDO1 092345Z 16008KT 20/04 A3006 RMK A01 T02010035  RH  034%=      5-min Rain = 0
KDO1 092346Z 16007KT 20/04 A3006 RMK A01 T02010036  RH  034%=      5-min Rain = 0
KDO1 092347Z 16008KT 20/04 A3006 RMK A01 T02000036  RH  034%=      5-min Rain = 0
KDO1 092348Z 16008KT 20/04 A3006 RMK A01 T02000036  RH  034%=      5-min Rain = 0
KDO1 092349Z 16007KT 20/04 A3006 RMK A01 T01990036  RH  034%=      5-min Rain = 0
KDO1 092350Z 16007KT 20/04 A3006 RMK A01 T01990036  RH  034%=      5-min Rain = 0
KDO1 092351Z 15007KT 20/04 A3006 RMK A01 T01980036  RH  034%=      5-min Rain = 0
KDO1 092352Z 15007KT 20/04 A3006 RMK A01 T01980036  RH  034%=      5-min Rain = 0
KDO1 092353Z 15006KT 20/04 A3006 RMK A01 T01980036  RH  034%=      5-min Rain = 0
KDO1 092354Z 15006KT 20/04 A3006 RMK A01 T01970036  RH  034%=      5-min Rain = 0
KDO1 092355Z 15006KT 20/04 A3006 RMK A01 T01960035  RH  035%=      5-min Rain = 0
KDO1 092356Z 15006KT 20/04 A3006 RMK A01 T01950036  RH  035%=      5-min Rain = 0
KDO1 092357Z 15006KT 20/04 A3006 RMK A01 T01950036  RH  035%=      5-min Rain = 0
KDO1 092358Z 15005KT 19/04 A3006 RMK A01 T01940035  RH  035%=      5-min Rain = 0
KDO1 092359Z 15005KT 19/04 A3006 RMK A01 T01930035  RH  035%=      5-min Rain = 0
KDO1 100000Z 15006KT 19/03 A3006 RMK A01 T01920034  RH  035%=      5-min Rain = 0
KDO1 100001Z 15006KT 19/03 A3006 RMK A01 T01920034  RH  035%=      5-min Rain = 0
KDO1 100002Z 15005KT 19/03 A3005 RMK A01 T01910034  RH  035%=      5-min Rain = 0
KDO1 100003Z 15005KT 19/03 A3005 RMK A01 T01910033  RH  035%=      5-min Rain = 0
KDO1 100004Z 15005KT 19/03 A3006 RMK A01 T01900033  RH  035%=      5-min Rain = 0
KDO1 100005Z 15005KT 19/03 A3006 RMK A01 T01890033  RH  035%=      5-min Rain = 0
KDO1 100006Z 15005KT 19/03 A3006 RMK A01 T01890032  RH  035%=      5-min Rain = 0
KDO1 100007Z 15005KT 19/03 A3006 RMK A01 T01880032  RH  035%=      5-min Rain = 0
KDO1 100008Z 16005KT 19/03 A3005 RMK A01 T01870032  RH  036%=      5-min Rain = 0
KDO1 100009Z 16005KT 19/03 A3005 RMK A01 T01860032  RH  036%=      5-min Rain = 0
KDO1 100010Z 15005KT 19/03 A3005 RMK A01 T01850031  RH  036%=      5-min Rain = 0
KDO1 100011Z 15005KT 18/03 A3006 RMK A01 T01840031  RH  036%=      5-min Rain = 0
KDO1 100012Z 14004KT 18/03 A3006 RMK A01 T01830031  RH  036%=      5-min Rain = 0
KDO1 100013Z 14004KT 18/03 A3006 RMK A01 T01820031  RH  036%=      5-min Rain = 0
KDO1 100014Z 14004KT 18/03 A3006 RMK A01 T01810031  RH  037%=      5-min Rain = 0
KDO1 100015Z 14003KT 18/03 A3006 RMK A01 T01800030  RH  037%=      5-min Rain = 0
KDO1 100016Z 14003KT 18/03 A3006 RMK A01 T01790030  RH  037%=      5-min Rain = 0
KDO1 100017Z 14004KT 18/03 A3006 RMK A01 T01780030  RH  037%=      5-min Rain = 0
KDO1 100018Z 14004KT 18/03 A3006 RMK A01 T01770030  RH  037%=      5-min Rain = 0
KDO1 100019Z 14003KT 18/03 A3005 RMK A01 T01760030  RH  038%=      5-min Rain = 0
KDO1 100020Z 14004KT 18/03 A3005 RMK A01 T01750030  RH  038%=      5-min Rain = 0
KDO1 100021Z 15003KT 17/03 A3005 RMK A01 T01740030  RH  038%=      5-min Rain = 0
KDO1 100022Z 15004KT 17/03 A3005 RMK A01 T01730030  RH  038%=      5-min Rain = 0
KDO1 100023Z 15004KT 17/03 A3005 RMK A01 T01720030  RH  039%=      5-min Rain = 0
KDO1 100024Z 15005KT 17/03 A3005 RMK A01 T01710029  RH  039%=      5-min Rain = 0
KDO1 100025Z 15005KT 17/03 A3005 RMK A01 T01700029  RH  039%=      5-min Rain = 0
KDO1 100026Z 15005KT 17/03 A3005 RMK A01 T01700029  RH  039%=      5-min Rain = 0
KDO1 100027Z 15004KT 17/03 A3005 RMK A01 T01690028  RH  039%=      5-min Rain = 0
KDO1 100028Z 15004KT 17/03 A3005 RMK A01 T01690028  RH  039%=      5-min Rain = 0
KDO1 100029Z 15004KT 17/03 A3005 RMK A01 T01700028  RH  039%=      5-min Rain = 0
KDO1 100030Z 15004KT 17/03 A3005 RMK A01 T01700028  RH  039%=      5-min Rain = 0
KDO1 100031Z 15004KT 17/03 A3005 RMK A01 T01700027  RH  038%=      5-min Rain = 0
KDO1 100032Z 15004KT 17/03 A3005 RMK A01 T01700027  RH  038%=      5-min Rain = 0
KDO1 100033Z 14005KT 17/03 A3005 RMK A01 T01700027  RH  038%=      5-min Rain = 0
KDO1 100034Z 14005KT 17/03 A3005 RMK A01 T01700027  RH  038%=      5-min Rain = 0
KDO1 100035Z 14004KT 17/03 A3005 RMK A01 T01700027  RH  038%=      5-min Rain = 0
KDO1 100036Z 15004KT 17/03 A3005 RMK A01 T01700027  RH  038%=      5-min Rain = 0
KDO1 100037Z 16004KT 17/03 A3005 RMK A01 T01700026  RH  038%=      5-min Rain = 0
KDO1 100038Z 19003KT 17/03 A3005 RMK A01 T01690027  RH  038%=      5-min Rain = 0
KDO1 100039Z 17004KT 17/03 A3005 RMK A01 T01670027  RH  039%=      5-min Rain = 0
KDO1 100040Z 16005KT 17/03 A3005 RMK A01 T01660027  RH  039%=      5-min Rain = 0
KDO1 100041Z 15006KT 17/03 A3005 RMK A01 T01650026  RH  039%=      5-min Rain = 0
KDO1 100042Z 15006KT 17/03 A3005 RMK A01 T01660025  RH  039%=      5-min Rain = 0
KDO1 100043Z 15006KT 17/03 A3005 RMK A01 T01680025  RH  038%=      5-min Rain = 0
KDO1 100044Z 15005KT 17/03 A3005 RMK A01 T01700025  RH  038%=      5-min Rain = 0
KDO1 100045Z 15005KT 17/03 A3005 RMK A01 T01720025  RH  037%=      5-min Rain = 0
KDO1 100046Z 14006KT 17/03 A3005 RMK A01 T01730025  RH  037%=      5-min Rain = 0
KDO1 100047Z 14005KT 17/02 A3005 RMK A01 T01730024  RH  037%=      5-min Rain = 0
KDO1 100048Z 15004KT 17/03 A3005 RMK A01 T01740025  RH  037%=      5-min Rain = 0
KDO1 100049Z 17003KT 17/02 A3005 RMK A01 T01720024  RH  037%=      5-min Rain = 0
KDO1 100050Z 16004KT 17/03 A3005 RMK A01 T01710025  RH  038%=      5-min Rain = 0
KDO1 100051Z 15004KT 17/02 A3005 RMK A01 T01690024  RH  038%=      5-min Rain = 0
KDO1 100052Z 15004KT 17/02 A3005 RMK A01 T01680024  RH  038%=      5-min Rain = 0
KDO1 100053Z 14005KT 17/02 A3006 RMK A01 T01670023  RH  038%=      5-min Rain = 0
KDO1 100054Z 16004KT 17/02 A3006 RMK A01 T01680023  RH  038%=      5-min Rain = 0
KDO1 100055Z 16004KT 17/02 A3006 RMK A01 T01680023  RH  038%=      5-min Rain = 0
KDO1 100056Z 13004KT 17/02 A3006 RMK A01 T01680023  RH  038%=      5-min Rain = 0
KDO1 100057Z 16003KT 17/02 A3006 RMK A01 T01670023  RH  038%=      5-min Rain = 0
KDO1 100058Z 16004KT 17/02 A3006 RMK A01 T01660023  RH  038%=      5-min Rain = 0
KDO1 100059Z 14005KT 17/02 A3006 RMK A01 T01650023  RH  039%=      5-min Rain = 0
KDO1 100100Z 15005KT 17/02 A3006 RMK A01 T01650023  RH  039%=      5-min Rain = 0
KDO1 100101Z 15004KT 16/02 A3006 RMK A01 T01640023  RH  039%=      5-min Rain = 0
KDO1 100102Z 16004KT 16/02 A3006 RMK A01 T01640023  RH  039%=      5-min Rain = 0
KDO1 100103Z 16004KT 16/02 A3006 RMK A01 T01630023  RH  039%=      5-min Rain = 0
KDO1 100104Z 17004KT 16/02 A3006 RMK A01 T01620023  RH  039%=      5-min Rain = 0
KDO1 100105Z 16004KT 16/02 A3006 RMK A01 T01600023  RH  040%=      5-min Rain = 0
KDO1 100106Z 17004KT 16/02 A3006 RMK A01 T01590023  RH  040%=      5-min Rain = 0
KDO1 100107Z 18004KT 16/02 A3006 RMK A01 T01580023  RH  040%=      5-min Rain = 0
KDO1 100108Z 16004KT 16/02 A3006 RMK A01 T01570023  RH  041%=      5-min Rain = 0
KDO1 100109Z 16004KT 16/02 A3006 RMK A01 T01570023  RH  041%=      5-min Rain = 0
KDO1 100110Z 16005KT 16/02 A3006 RMK A01 T01570023  RH  040%=      5-min Rain = 0
KDO1 100111Z 15005KT 16/02 A3006 RMK A01 T01580023  RH  040%=      5-min Rain = 0
KDO1 100112Z 15005KT 16/02 A3006 RMK A01 T01590023  RH  040%=      5-min Rain = 0
KDO1 100113Z 15005KT 16/02 A3006 RMK A01 T01600024  RH  040%=      5-min Rain = 0
KDO1 100114Z 16005KT 16/02 A3006 RMK A01 T01610023  RH  040%=      5-min Rain = 0
KDO1 100115Z 16005KT 16/02 A3006 RMK A01 T01610023  RH  039%=      5-min Rain = 0
KDO1 100116Z 17004KT 16/02 A3006 RMK A01 T01610023  RH  040%=      5-min Rain = 0
KDO1 100117Z 18004KT 16/02 A3006 RMK A01 T01610023  RH  040%=      5-min Rain = 0
KDO1 100118Z 18004KT 16/02 A3006 RMK A01 T01600023  RH  040%=      5-min Rain = 0
KDO1 100119Z 17003KT 16/02 A3006 RMK A01 T01590022  RH  040%=      5-min Rain = 0
KDO1 100120Z 16003KT 16/02 A3006 RMK A01 T01590022  RH  040%=      5-min Rain = 0
KDO1 100121Z 16004KT 16/02 A3006 RMK A01 T01590022  RH  040%=      5-min Rain = 0
KDO1 100122Z 16003KT 16/02 A3006 RMK A01 T01580021  RH  040%=      5-min Rain = 0
KDO1 100123Z 16004KT 16/02 A3006 RMK A01 T01590022  RH  040%=      5-min Rain = 0
KDO1 100124Z 16004KT 16/02 A3006 RMK A01 T01580021  RH  040%=      5-min Rain = 0
KDO1 100125Z 17004KT 16/02 A3006 RMK A01 T01580021  RH  040%=      5-min Rain = 0
KDO1 100126Z 17004KT 16/02 A3006 RMK A01 T01580021  RH  040%=      5-min Rain = 0
KDO1 100127Z 17004KT 16/02 A3006 RMK A01 T01580021  RH  040%=      5-min Rain = 0
KDO1 100128Z 17004KT 16/02 A3006 RMK A01 T01580021  RH  039%=      5-min Rain = 0
KDO1 100129Z 17004KT 16/02 A3006 RMK A01 T01580020  RH  039%=      5-min Rain = 0
KDO1 100130Z 17004KT 16/02 A3006 RMK A01 T01570020  RH  039%=      5-min Rain = 0
KDO1 100131Z 18004KT 16/02 A3006 RMK A01 T01570019  RH  039%=      5-min Rain = 0
KDO1 100132Z 18004KT 16/02 A3006 RMK A01 T01560019  RH  040%=      5-min Rain = 0
KDO1 100133Z 18004KT 16/02 A3006 RMK A01 T01560019  RH  040%=      5-min Rain = 0
KDO1 100134Z 19004KT 16/02 A3006 RMK A01 T01550020  RH  040%=      5-min Rain = 0
KDO1 100135Z 19004KT 15/02 A3006 RMK A01 T01540019  RH  040%=      5-min Rain = 0
KDO1 100136Z 19003KT 15/02 A3006 RMK A01 T01530020  RH  041%=      5-min Rain = 0
KDO1 100137Z 19003KT 15/02 A3006 RMK A01 T01520020  RH  041%=      5-min Rain = 0
KDO1 100138Z 19003KT 15/02 A3006 RMK A01 T01500020  RH  041%=      5-min Rain = 0
KDO1 100139Z 19003KT 15/02 A3006 RMK A01 T01490020  RH  042%=      5-min Rain = 0
KDO1 100140Z 19003KT 15/02 A3006 RMK A01 T01480020  RH  042%=      5-min Rain = 0
KDO1 100141Z 19002KT 15/02 A3006 RMK A01 T01470019  RH  042%=      5-min Rain = 0
KDO1 100142Z 20002KT 15/02 A3006 RMK A01 T01470019  RH  042%=      5-min Rain = 0
KDO1 100143Z 20002KT 15/02 A3006 RMK A01 T01470019  RH  042%=      5-min Rain = 0
KDO1 100144Z 20002KT 15/02 A3006 RMK A01 T01460019  RH  042%=      5-min Rain = 0
KDO1 100145Z 21002KT 15/02 A3006 RMK A01 T01460019  RH  042%=      5-min Rain = 0
KDO1 100146Z 21003KT 15/02 A3006 RMK A01 T01460018  RH  042%=      5-min Rain = 0
KDO1 100147Z 21003KT 15/02 A3006 RMK A01 T01460018  RH  042%=      5-min Rain = 0
KDO1 100148Z 22003KT 15/02 A3006 RMK A01 T01460019  RH  042%=      5-min Rain = 0
KDO1 100149Z 22003KT 14/02 A3006 RMK A01 T01440020  RH  043%=      5-min Rain = 0
KDO1 100150Z 22003KT 14/02 A3006 RMK A01 T01430019  RH  043%=      5-min Rain = 0
KDO1 100151Z 22003KT 14/02 A3006 RMK A01 T01420019  RH  043%=      5-min Rain = 0
KDO1 100152Z 22004KT 14/02 A3006 RMK A01 T01410019  RH  043%=      5-min Rain = 0
KDO1 100153Z 22004KT 14/02 A3006 RMK A01 T01410019  RH  044%=      5-min Rain = 0
KDO1 100154Z 23004KT 14/02 A3006 RMK A01 T01400018  RH  044%=      5-min Rain = 0
KDO1 100155Z 23004KT 14/02 A3006 RMK A01 T01390016  RH  043%=      5-min Rain = 0
KDO1 100156Z 23004KT 14/01 A3006 RMK A01 T01390014  RH  043%=      5-min Rain = 0
KDO1 100157Z 23005KT 14/01 A3006 RMK A01 T01380012  RH  042%=      5-min Rain = 0
KDO1 100158Z 22005KT 14/01 A3006 RMK A01 T01370011  RH  042%=      5-min Rain = 0
KDO1 100159Z 22005KT 14/01 A3006 RMK A01 T01370010  RH  042%=      5-min Rain = 0
KDO1 100200Z 22005KT 14/01 A3006 RMK A01 T01360008  RH  041%=      5-min Rain = 0
KDO1 100201Z 22005KT 14/01 A3006 RMK A01 T01380008  RH  041%=      5-min Rain = 0
KDO1 100202Z 22006KT 14/01 A3006 RMK A01 T01380006  RH  041%=      5-min Rain = 0
KDO1 100203Z 22006KT 14/01 A3006 RMK A01 T01380006  RH  040%=      5-min Rain = 0
KDO1 100204Z 22007KT 14/01 A3006 RMK A01 T01380006  RH  040%=      5-min Rain = 0
KDO1 100205Z 22007KT 14/01 A3005 RMK A01 T01380005  RH  040%=      5-min Rain = 0
KDO1 100206Z 22007KT 14/01 A3005 RMK A01 T01380005  RH  040%=      5-min Rain = 0
KDO1 100207Z 22007KT 14/01 A3005 RMK A01 T01380005  RH  040%=      5-min Rain = 0
KDO1 100208Z 22007KT 14/01 A3005 RMK A01 T01380005  RH  040%=      5-min Rain = 0
KDO1 100209Z 22007KT 14/01 A3005 RMK A01 T01380005  RH  040%=      5-min Rain = 0
KDO1 100210Z 22007KT 14/00 A3005 RMK A01 T01380004  RH  040%=      5-min Rain = 0
KDO1 100211Z 22006KT 14/00 A3005 RMK A01 T01380004  RH  040%=      5-min Rain = 0
KDO1 100212Z 22006KT 14/00 A3005 RMK A01 T01370004  RH  040%=      5-min Rain = 0
KDO1 100213Z 22007KT 14/00 A3005 RMK A01 T01370004  RH  040%=      5-min Rain = 0
KDO1 100214Z 22007KT 14/00 A3005 RMK A01 T01360004  RH  040%=      5-min Rain = 0
KDO1 100215Z 22007KT 14/00 A3005 RMK A01 T01360004  RH  040%=      5-min Rain = 0
KDO1 100216Z 22007KT 14/01 A3005 RMK A01 T01370005  RH  040%=      5-min Rain = 0
KDO1 100217Z 22007KT 14/01 A3005 RMK A01 T01360005  RH  041%=      5-min Rain = 0
KDO1 100218Z 22007KT 14/01 A3005 RMK A01 T01360006  RH  041%=      5-min Rain = 0
KDO1 100219Z 22006KT 14/01 A3005 RMK A01 T01350006  RH  041%=      5-min Rain = 0
KDO1 100220Z 22006KT 14/01 A3005 RMK A01 T01350006  RH  041%=      5-min Rain = 0
KDO1 100221Z 22006KT 14/01 A3005 RMK A01 T01350006  RH  041%=      5-min Rain = 0
KDO1 100222Z 23007KT 14/01 A3005 RMK A01 T01350006  RH  041%=      5-min Rain = 0
KDO1 100223Z 23007KT 14/01 A3005 RMK A01 T01350007  RH  042%=      5-min Rain = 0
KDO1 100224Z 23007KT 14/01 A3005 RMK A01 T01360008  RH  042%=      5-min Rain = 0
KDO1 100225Z 23007KT 14/01 A3005 RMK A01 T01360009  RH  042%=      5-min Rain = 0
KDO1 100226Z 23007KT 14/01 A3005 RMK A01 T01360011  RH  043%=      5-min Rain = 0
KDO1 100227Z 23007KT 14/01 A3005 RMK A01 T01360012  RH  043%=      5-min Rain = 0
KDO1 100228Z 23007KT 14/01 A3005 RMK A01 T01360012  RH  043%=      5-min Rain = 0
KDO1 100229Z 23006KT 14/01 A3005 RMK A01 T01360012  RH  043%=      5-min Rain = 0
KDO1 100230Z 24006KT 14/01 A3005 RMK A01 T01360012  RH  043%=      5-min Rain = 0
KDO1 100231Z 24006KT 14/01 A3005 RMK A01 T01360013  RH  043%=      5-min Rain = 0
KDO1 100232Z 24006KT 14/01 A3005 RMK A01 T01370013  RH  043%=      5-min Rain = 0
KDO1 100233Z 24005KT 14/01 A3005 RMK A01 T01370014  RH  043%=      5-min Rain = 0
KDO1 100234Z 24005KT 14/01 A3005 RMK A01 T01370014  RH  043%=      5-min Rain = 0
KDO1 100235Z 24005KT 14/01 A3005 RMK A01 T01370014  RH  043%=      5-min Rain = 0
KDO1 100236Z 24006KT 14/01 A3005 RMK A01 T01370014  RH  043%=      5-min Rain = 0
KDO1 100237Z 23006KT 14/02 A3005 RMK A01 T01370015  RH  043%=      5-min Rain = 0
KDO1 100238Z 24006KT 14/02 A3005 RMK A01 T01370015  RH  044%=      5-min Rain = 0
KDO1 100239Z 24006KT 14/02 A3005 RMK A01 T01370015  RH  044%=      5-min Rain = 0
KDO1 100240Z 24006KT 14/02 A3005 RMK A01 T01380016  RH  043%=      5-min Rain = 0
KDO1 100241Z 23006KT 14/02 A3005 RMK A01 T01380016  RH  043%=      5-min Rain = 0
KDO1 100242Z 23006KT 14/02 A3005 RMK A01 T01390016  RH  043%=      5-min Rain = 0
KDO1 100243Z 23006KT 14/02 A3005 RMK A01 T01380015  RH  043%=      5-min Rain = 0
KDO1 100244Z 23007KT 14/02 A3005 RMK A01 T01390016  RH  043%=      5-min Rain = 0
KDO1 100245Z 23007KT 14/02 A3005 RMK A01 T01390017  RH  044%=      5-min Rain = 0
KDO1 100246Z 23006KT 14/02 A3005 RMK A01 T01390017  RH  044%=      5-min Rain = 0
KDO1 100247Z 23006KT 14/02 A3005 RMK A01 T01390018  RH  044%=      5-min Rain = 0
KDO1 100248Z 23006KT 14/02 A3005 RMK A01 T01380017  RH  044%=      5-min Rain = 0
KDO1 100249Z 24006KT 14/02 A3005 RMK A01 T01380018  RH  044%=      5-min Rain = 0
KDO1 100250Z 24005KT 14/02 A3005 RMK A01 T01370017  RH  044%=      5-min Rain = 0
KDO1 100251Z 24005KT 14/02 A3005 RMK A01 T01370018  RH  045%=      5-min Rain = 0
KDO1 100252Z 24005KT 14/02 A3005 RMK A01 T01360018  RH  045%=      5-min Rain = 0
KDO1 100253Z 25005KT 14/02 A3005 RMK A01 T01360019  RH  045%=      5-min Rain = 0
KDO1 100254Z 25005KT 14/02 A3005 RMK A01 T01350019  RH  045%=      5-min Rain = 0
KDO1 100255Z 25005KT 14/02 A3005 RMK A01 T01350018  RH  045%=      5-min Rain = 0
KDO1 100256Z 25005KT 13/02 A3005 RMK A01 T01340019  RH  046%=      5-min Rain = 0
KDO1 100257Z 24006KT 13/02 A3005 RMK A01 T01340020  RH  046%=      5-min Rain = 0
KDO1 100258Z 24006KT 13/02 A3005 RMK A01 T01330021  RH  047%=      5-min Rain = 0
KDO1 100259Z 24005KT 13/02 A3005 RMK A01 T01330022  RH  047%=      5-min Rain = 0
KDO1 100300Z 25005KT 13/02 A3005 RMK A01 T01330022  RH  047%=      5-min Rain = 0
KDO1 100301Z 24005KT 13/02 A3006 RMK A01 T01330022  RH  047%=      5-min Rain = 0
KDO1 100302Z 24006KT 13/02 A3006 RMK A01 T01320022  RH  047%=      5-min Rain = 0
KDO1 100303Z 25005KT 13/02 A3006 RMK A01 T01320022  RH  047%=      5-min Rain = 0
KDO1 100304Z 25006KT 13/02 A3006 RMK A01 T01320022  RH  047%=      5-min Rain = 0
KDO1 100305Z 24005KT 13/02 A3006 RMK A01 T01330023  RH  047%=      5-min Rain = 0
KDO1 100306Z 25005KT 13/02 A3006 RMK A01 T01330022  RH  047%=      5-min Rain = 0
KDO1 100307Z 25005KT 13/02 A3006 RMK A01 T01330023  RH  047%=      5-min Rain = 0
KDO1 100308Z 25005KT 13/02 A3006 RMK A01 T01330023  RH  047%=      5-min Rain = 0
KDO1 100309Z 25005KT 13/02 A3006 RMK A01 T01330022  RH  047%=      5-min Rain = 0
KDO1 100310Z 25005KT 13/02 A3006 RMK A01 T01330022  RH  047%=      5-min Rain = 0
KDO1 100311Z 26005KT 13/02 A3006 RMK A01 T01330023  RH  047%=      5-min Rain = 0
KDO1 100312Z 26005KT 13/02 A3006 RMK A01 T01320023  RH  047%=      5-min Rain = 0
KDO1 100313Z 26005KT 13/02 A3006 RMK A01 T01320023  RH  047%=      5-min Rain = 0
KDO1 100314Z 26005KT 13/02 A3006 RMK A01 T01320023  RH  048%=      5-min Rain = 0
KDO1 100315Z 26005KT 13/02 A3006 RMK A01 T01320023  RH  048%=      5-min Rain = 0
KDO1 100316Z 26005KT 13/02 A3006 RMK A01 T01320024  RH  048%=      5-min Rain = 0
KDO1 100317Z 26005KT 13/02 A3006 RMK A01 T01310024  RH  048%=      5-min Rain = 0
KDO1 100318Z 26005KT 13/02 A3006 RMK A01 T01310024  RH  048%=      5-min Rain = 0
KDO1 100319Z 26005KT 13/02 A3006 RMK A01 T01320024  RH  048%=      5-min Rain = 0
KDO1 100320Z 25005KT 13/02 A3006 RMK A01 T01320024  RH  048%=      5-min Rain = 0
KDO1 100321Z 25005KT 13/02 A3006 RMK A01 T01320024  RH  048%=      5-min Rain = 0
KDO1 100322Z 25005KT 13/03 A3006 RMK A01 T01320025  RH  048%=      5-min Rain = 0
KDO1 100323Z 25006KT 13/03 A3006 RMK A01 T01320025  RH  048%=      5-min Rain = 0
KDO1 100324Z 25006KT 13/03 A3006 RMK A01 T01310025  RH  049%=      5-min Rain = 0
KDO1 100325Z 25005KT 13/03 A3006 RMK A01 T01310026  RH  049%=      5-min Rain = 0
KDO1 100326Z 25006KT 13/03 A3006 RMK A01 T01310027  RH  049%=      5-min Rain = 0
KDO1 100327Z 25005KT 13/03 A3006 RMK A01 T01310027  RH  049%=      5-min Rain = 0
KDO1 100328Z 26005KT 13/03 A3006 RMK A01 T01320028  RH  049%=      5-min Rain = 0
KDO1 100329Z 25005KT 13/03 A3006 RMK A01 T01320029  RH  049%=      5-min Rain = 0
KDO1 100330Z 25005KT 13/03 A3006 RMK A01 T01320029  RH  050%=      5-min Rain = 0
KDO1 100331Z 25006KT 13/03 A3006 RMK A01 T01330030  RH  050%=      5-min Rain = 0
KDO1 100332Z 25006KT 13/03 A3006 RMK A01 T01330030  RH  050%=      5-min Rain = 0
KDO1 100333Z 25006KT 13/03 A3006 RMK A01 T01330030  RH  050%=      5-min Rain = 0
KDO1 100334Z 26006KT 13/03 A3006 RMK A01 T01330030  RH  050%=      5-min Rain = 0
KDO1 100335Z 25006KT 13/03 A3006 RMK A01 T01320030  RH  050%=      5-min Rain = 0
KDO1 100336Z 25006KT 13/03 A3006 RMK A01 T01320030  RH  050%=      5-min Rain = 0
KDO1 100337Z 25005KT 13/03 A3006 RMK A01 T01320031  RH  050%=      5-min Rain = 0
KDO1 100338Z 25005KT 13/03 A3006 RMK A01 T01320030  RH  050%=      5-min Rain = 0
KDO1 100339Z 25006KT 13/03 A3006 RMK A01 T01320030  RH  050%=      5-min Rain = 0
KDO1 100340Z 25006KT 13/03 A3006 RMK A01 T01310029  RH  050%=      5-min Rain = 0
KDO1 100341Z 25006KT 13/03 A3006 RMK A01 T01290029  RH  051%=      5-min Rain = 0
KDO1 100342Z 25007KT 13/03 A3006 RMK A01 T01280030  RH  051%=      5-min Rain = 0
KDO1 100343Z 25007KT 13/03 A3006 RMK A01 T01270030  RH  052%=      5-min Rain = 0
KDO1 100344Z 25006KT 13/03 A3006 RMK A01 T01270030  RH  052%=      5-min Rain = 0
KDO1 100345Z 25006KT 13/03 A3006 RMK A01 T01260031  RH  052%=      5-min Rain = 0
KDO1 100346Z 25006KT 13/03 A3006 RMK A01 T01250031  RH  053%=      5-min Rain = 0
KDO1 100347Z 24006KT 12/03 A3006 RMK A01 T01240030  RH  053%=      5-min Rain = 0
KDO1 100348Z 24006KT 12/03 A3006 RMK A01 T01230030  RH  053%=      5-min Rain = 0
KDO1 100349Z 24006KT 12/03 A3006 RMK A01 T01210030  RH  054%=      5-min Rain = 0
KDO1 100350Z 25006KT 12/03 A3006 RMK A01 T01200030  RH  054%=      5-min Rain = 0
KDO1 100351Z 24006KT 12/03 A3006 RMK A01 T01190030  RH  054%=      5-min Rain = 0
KDO1 100352Z 24006KT 12/03 A3006 RMK A01 T01190030  RH  055%=      5-min Rain = 0
KDO1 100353Z 24006KT 12/03 A3006 RMK A01 T01180030  RH  055%=      5-min Rain = 0
KDO1 100354Z 24006KT 12/03 A3006 RMK A01 T01170031  RH  055%=      5-min Rain = 0
KDO1 100355Z 24006KT 12/03 A3006 RMK A01 T01170031  RH  055%=      5-min Rain = 0
KDO1 100356Z 24006KT 12/03 A3006 RMK A01 T01170031  RH  056%=      5-min Rain = 0
KDO1 100357Z 25006KT 12/03 A3006 RMK A01 T01170031  RH  056%=      5-min Rain = 0
KDO1 100358Z 24005KT 12/03 A3006 RMK A01 T01160031  RH  056%=      5-min Rain = 0
KDO1 100359Z 24006KT 12/03 A3006 RMK A01 T01160032  RH  056%=      5-min Rain = 0
KDO1 100400Z 25006KT 12/03 A3006 RMK A01 T01160032  RH  056%=      5-min Rain = 0
KDO1 100401Z 25006KT 12/03 A3006 RMK A01 T01170034  RH  057%=      5-min Rain = 0
KDO1 100402Z 25006KT 12/03 A3006 RMK A01 T01170034  RH  057%=      5-min Rain = 0
KDO1 100403Z 25006KT 12/04 A3006 RMK A01 T01170036  RH  057%=      5-min Rain = 0
KDO1 100404Z 25006KT 12/04 A3006 RMK A01 T01180037  RH  057%=      5-min Rain = 0
KDO1 100405Z 25006KT 12/04 A3006 RMK A01 T01190038  RH  058%=      5-min Rain = 0
KDO1 100406Z 25006KT 12/04 A3006 RMK A01 T01190039  RH  058%=      5-min Rain = 0
KDO1 100407Z 25006KT 12/04 A3006 RMK A01 T01200040  RH  058%=      5-min Rain = 0
KDO1 100408Z 25007KT 12/04 A3006 RMK A01 T01200041  RH  058%=      5-min Rain = 0
KDO1 100409Z 25007KT 12/04 A3006 RMK A01 T01210042  RH  058%=      5-min Rain = 0
KDO1 100410Z 25007KT 12/04 A3006 RMK A01 T01220044  RH  059%=      5-min Rain = 0
KDO1 100411Z 25007KT 12/05 A3006 RMK A01 T01240045  RH  059%=      5-min Rain = 0
KDO1 100412Z 25007KT 13/05 A3006 RMK A01 T01260046  RH  058%=      5-min Rain = 0
KDO1 100413Z 25007KT 13/05 A3006 RMK A01 T01270046  RH  058%=      5-min Rain = 0
KDO1 100414Z 24007KT 13/05 A3006 RMK A01 T01270046  RH  058%=      5-min Rain = 0
KDO1 100415Z 25008KT 13/05 A3006 RMK A01 T01280046  RH  058%=      5-min Rain = 0
KDO1 100416Z 25008KT 13/05 A3006 RMK A01 T01280046  RH  058%=      5-min Rain = 0
KDO1 100417Z 25008KT 13/05 A3006 RMK A01 T01280047  RH  058%=      5-min Rain = 0
KDO1 100418Z 25007KT 13/05 A3006 RMK A01 T01280047  RH  058%=      5-min Rain = 0
KDO1 100419Z 25007KT 13/05 A3006 RMK A01 T01280047  RH  058%=      5-min Rain = 0
KDO1 100420Z 24007KT 13/05 A3006 RMK A01 T01280047  RH  058%=      5-min Rain = 0
KDO1 100421Z 24007KT 13/05 A3006 RMK A01 T01280047  RH  058%=      5-min Rain = 0
KDO1 100422Z 24007KT 13/05 A3006 RMK A01 T01270046  RH  058%=      5-min Rain = 0
KDO1 100423Z 24006KT 13/05 A3006 RMK A01 T01250046  RH  058%=      5-min Rain = 0
KDO1 100424Z 24006KT 13/05 A3006 RMK A01 T01250046  RH  059%=      5-min Rain = 0
KDO1 100425Z 24006KT 12/05 A3006 RMK A01 T01240046  RH  059%=      5-min Rain = 0
KDO1 100426Z 24006KT 12/05 A3006 RMK A01 T01230046  RH  059%=      5-min Rain = 0
KDO1 100427Z 25006KT 12/05 A3006 RMK A01 T01220045  RH  059%=      5-min Rain = 0
KDO1 100428Z 25006KT 12/05 A3006 RMK A01 T01210045  RH  060%=      5-min Rain = 0
KDO1 100429Z 25006KT 12/05 A3006 RMK A01 T01200045  RH  060%=      5-min Rain = 0
KDO1 100430Z 25006KT 12/05 A3007 RMK A01 T01200045  RH  060%=      5-min Rain = 0
KDO1 100431Z 25006KT 12/05 A3007 RMK A01 T01190045  RH  061%=      5-min Rain = 0
KDO1 100432Z 25006KT 12/05 A3007 RMK A01 T01190046  RH  061%=      5-min Rain = 0
KDO1 100433Z 25006KT 12/05 A3007 RMK A01 T01190046  RH  061%=      5-min Rain = 0
KDO1 100434Z 25006KT 12/05 A3007 RMK A01 T01200046  RH  061%=      5-min Rain = 0
KDO1 100435Z 25006KT 12/05 A3007 RMK A01 T01200046  RH  061%=      5-min Rain = 0
KDO1 100436Z 25005KT 12/05 A3007 RMK A01 T01200047  RH  061%=      5-min Rain = 0
KDO1 100437Z 25005KT 12/05 A3007 RMK A01 T01210047  RH  061%=      5-min Rain = 0
KDO1 100438Z 25005KT 12/05 A3007 RMK A01 T01210047  RH  061%=      5-min Rain = 0
KDO1 100439Z 25005KT 12/05 A3007 RMK A01 T01220048  RH  060%=      5-min Rain = 0
KDO1 100440Z 25005KT 12/05 A3007 RMK A01 T01220048  RH  060%=      5-min Rain = 0
KDO1 100441Z 24005KT 12/05 A3007 RMK A01 T01230048  RH  060%=      5-min Rain = 0
KDO1 100442Z 24006KT 12/05 A3007 RMK A01 T01240049  RH  060%=      5-min Rain = 0
KDO1 100443Z 24006KT 13/05 A3007 RMK A01 T01250049  RH  060%=      5-min Rain = 0
KDO1 100444Z 24006KT 13/05 A3007 RMK A01 T01250048  RH  060%=      5-min Rain = 0
KDO1 100445Z 25006KT 13/05 A3007 RMK A01 T01250048  RH  060%=      5-min Rain = 0
KDO1 100446Z 24006KT 12/05 A3007 RMK A01 T01240048  RH  060%=      5-min Rain = 0
KDO1 100447Z 24006KT 12/05 A3007 RMK A01 T01230048  RH  060%=      5-min Rain = 0
KDO1 100448Z 25006KT 12/05 A3006 RMK A01 T01220048  RH  060%=      5-min Rain = 0
KDO1 100449Z 25006KT 12/05 A3006 RMK A01 T01210048  RH  061%=      5-min Rain = 0
KDO1 100450Z 25006KT 12/05 A3006 RMK A01 T01200048  RH  061%=      5-min Rain = 0
KDO1 100451Z 25006KT 12/05 A3006 RMK A01 T01200048  RH  061%=      5-min Rain = 0
KDO1 100452Z 24005KT 12/05 A3006 RMK A01 T01190048  RH  062%=      5-min Rain = 0
KDO1 100453Z 25005KT 12/05 A3007 RMK A01 T01190048  RH  062%=      5-min Rain = 0
KDO1 100454Z 25005KT 12/05 A3007 RMK A01 T01180048  RH  062%=      5-min Rain = 0
KDO1 100455Z 24005KT 12/05 A3007 RMK A01 T01180048  RH  062%=      5-min Rain = 0
KDO1 100456Z 24004KT 12/05 A3007 RMK A01 T01180048  RH  062%=      5-min Rain = 0
KDO1 100457Z 25004KT 12/05 A3007 RMK A01 T01170048  RH  062%=      5-min Rain = 0
KDO1 100458Z 24003KT 12/05 A3007 RMK A01 T01170048  RH  062%=      5-min Rain = 0
KDO1 100459Z 25003KT 12/05 A3007 RMK A01 T01160047  RH  062%=      5-min Rain = 0
KDO1 100500Z 25003KT 12/05 A3007 RMK A01 T01150047  RH  063%=      5-min Rain = 0
KDO1 100501Z 25003KT 11/05 A3007 RMK A01 T01140046  RH  063%=      5-min Rain = 0
KDO1 100502Z 26003KT 11/05 A3007 RMK A01 T01130047  RH  063%=      5-min Rain = 0
KDO1 100503Z 26003KT 11/05 A3007 RMK A01 T01120046  RH  064%=      5-min Rain = 0
KDO1 100504Z 26002KT 11/05 A3007 RMK A01 T01120047  RH  064%=      5-min Rain = 0
KDO1 100505Z 27002KT 11/05 A3007 RMK A01 T01110046  RH  065%=      5-min Rain = 0
KDO1 100506Z 27002KT 11/05 A3007 RMK A01 T01100046  RH  065%=      5-min Rain = 0
KDO1 100507Z 27002KT 11/05 A3006 RMK A01 T01090046  RH  065%=      5-min Rain = 0
KDO1 100508Z 27003KT 11/05 A3006 RMK A01 T01090046  RH  065%=      5-min Rain = 0
KDO1 100509Z 27003KT 11/05 A3006 RMK A01 T01080046  RH  066%=      5-min Rain = 0
KDO1 100510Z 27003KT 11/05 A3006 RMK A01 T01080046  RH  066%=      5-min Rain = 0
KDO1 100511Z 26003KT 11/05 A3006 RMK A01 T01080047  RH  066%=      5-min Rain = 0
KDO1 100512Z 27003KT 11/05 A3006 RMK A01 T01080046  RH  066%=      5-min Rain = 0
KDO1 100513Z 26004KT 11/05 A3006 RMK A01 T01080046  RH  066%=      5-min Rain = 0
KDO1 100514Z 26004KT 11/05 A3006 RMK A01 T01080047  RH  066%=      5-min Rain = 0
KDO1 100515Z 26004KT 11/05 A3006 RMK A01 T01100047  RH  065%=      5-min Rain = 0
KDO1 100516Z 26004KT 11/05 A3006 RMK A01 T01100047  RH  065%=      5-min Rain = 0
KDO1 100517Z 26003KT 11/05 A3006 RMK A01 T01120047  RH  064%=      5-min Rain = 0
KDO1 100518Z 26003KT 11/05 A3006 RMK A01 T01120046  RH  064%=      5-min Rain = 0
KDO1 100519Z 26003KT 11/05 A3006 RMK A01 T01120045  RH  063%=      5-min Rain = 0
KDO1 100520Z 26003KT 11/05 A3006 RMK A01 T01120045  RH  063%=      5-min Rain = 0
KDO1 100521Z 26003KT 11/05 A3006 RMK A01 T01110045  RH  064%=      5-min Rain = 0
KDO1 100522Z 24003KT 11/05 A3006 RMK A01 T01110045  RH  064%=      5-min Rain = 0
KDO1 100523Z 25002KT 11/05 A3006 RMK A01 T01100045  RH  064%=      5-min Rain = 0
KDO1 100524Z 24002KT 11/05 A3006 RMK A01 T01100045  RH  064%=      5-min Rain = 0
KDO1 100525Z 23001KT 11/05 A3006 RMK A01 T01090045  RH  065%=      5-min Rain = 0
KDO1 100526Z 23001KT 11/05 A3006 RMK A01 T01070045  RH  065%=      5-min Rain = 0
KDO1 100527Z 21001KT 11/05 A3006 RMK A01 T01050045  RH  066%=      5-min Rain = 0
KDO1 100528Z 20001KT 10/04 A3006 RMK A01 T01010043  RH  067%=      5-min Rain = 0
KDO1 100529Z 21001KT 10/04 A3006 RMK A01 T00980041  RH  068%=      5-min Rain = 0
KDO1 100530Z 18001KT 09/04 A3006 RMK A01 T00930038  RH  069%=      5-min Rain = 0
KDO1 100531Z 21001KT 09/04 A3006 RMK A01 T00900037  RH  070%=      5-min Rain = 0
KDO1 100532Z 19000KT 09/04 A3006 RMK A01 T00870035  RH  070%=      5-min Rain = 0
KDO1 100533Z 17000KT 08/03 A3006 RMK A01 T00840031  RH  069%=      5-min Rain = 0
KDO1 100534Z 19000KT 08/03 A3006 RMK A01 T00820029  RH  069%=      5-min Rain = 0
KDO1 100535Z 21000KT 08/03 A3006 RMK A01 T00820031  RH  070%=      5-min Rain = 0
KDO1 100536Z 00000KT 08/03 A3006 RMK A01 T00830033  RH  071%=      5-min Rain = 0
KDO1 100537Z 00000KT 09/04 A3006 RMK A01 T00850035  RH  071%=      5-min Rain = 0
KDO1 100538Z 01000KT 09/04 A3006 RMK A01 T00860035  RH  070%=      5-min Rain = 0
KDO1 100539Z 01000KT 09/03 A3006 RMK A01 T00870034  RH  070%=      5-min Rain = 0
KDO1 100540Z 00000KT 09/03 A3006 RMK A01 T00860033  RH  069%=      5-min Rain = 0
KDO1 100541Z 00000KT 09/03 A3006 RMK A01 T00850033  RH  070%=      5-min Rain = 0
KDO1 100542Z 00000KT 08/03 A3006 RMK A01 T00840032  RH  069%=      5-min Rain = 0
KDO1 100543Z 00000KT 08/03 A3006 RMK A01 T00830032  RH  070%=      5-min Rain = 0
KDO1 100544Z 00000KT 08/03 A3006 RMK A01 T00830033  RH  071%=      5-min Rain = 0
KDO1 100545Z 00000KT 08/03 A3006 RMK A01 T00830034  RH  071%=      5-min Rain = 0
KDO1 100546Z 00000KT 08/03 A3006 RMK A01 T00840034  RH  071%=      5-min Rain = 0
KDO1 100547Z 00000KT 09/03 A3006 RMK A01 T00850034  RH  071%=      5-min Rain = 0
KDO1 100548Z 00000KT 09/04 A3006 RMK A01 T00850035  RH  071%=      5-min Rain = 0
KDO1 100549Z 13000KT 09/04 A3006 RMK A01 T00860038  RH  072%=      5-min Rain = 0
KDO1 100550Z 00000KT 09/04 A3006 RMK A01 T00890040  RH  072%=      5-min Rain = 0
KDO1 100551Z 00000KT 09/04 A3006 RMK A01 T00910040  RH  070%=      5-min Rain = 0
KDO1 100552Z 22000KT 09/04 A3006 RMK A01 T00920039  RH  069%=      5-min Rain = 0
KDO1 100553Z 22000KT 09/04 A3006 RMK A01 T00930038  RH  069%=      5-min Rain = 0
KDO1 100554Z 18000KT 09/04 A3006 RMK A01 T00930038  RH  069%=      5-min Rain = 0
KDO1 100555Z 20000KT 09/04 A3006 RMK A01 T00920037  RH  068%=      5-min Rain = 0
KDO1 100556Z 21001KT 09/04 A3006 RMK A01 T00910036  RH  069%=      5-min Rain = 0
KDO1 100557Z 21001KT 09/04 A3006 RMK A01 T00900035  RH  069%=      5-min Rain = 0
KDO1 100558Z 19000KT 09/03 A3006 RMK A01 T00890034  RH  069%=      5-min Rain = 0
KDO1 100559Z 21001KT 09/03 A3006 RMK A01 T00880034  RH  069%=      5-min Rain = 0

Page generated in 0.0773 seconds.